PWSweather.com
Personal Weather Stations
Station Observations
KAKWILLO2
Kelly Lake, Willow, AK 99688

Kelly LakeWillow, AK 99688

Lat: 61.713859, Lon: -150.021621

Elevation: 250

Station Type: Davis Vantage PRO2

http://www.willowweather.com

Latest ConditionsUpdated 1:01:30 PM AKST Saturday, Feb 23, 2019
Currently Today's Max Today's Min Today's Average
Temperature 15.7°F-9.1°C 15.7°F-9.1°C -5.3°F-20.7°C -1.2°F-18.4°C
Dew Point 10.1°F-12.2°C 10.4°F-12.0°C -8.9°F-22.7°C -4.5°F-20.3°C
Winds Calm Calm Calm -Calm - - Calm Calm
Wind Gusts -- -- - -
Humidity 78% 90% 78% 85%
Pressure 30.50 in1032.8 mb 30.50 in1032.8 mb 30.40 in1029.5 mb -
Hour Temp Dew Point Humidity Winds Wind Gusts Pressure Precip Precip Rate Daily Precip Total
01:01 PM 15.7°F-9.1°C 10.1°F-12.2°C 78% Calm Calm -- 30.50 in1032.8 mb - 0.00 in0.0 mm 0.00 in0.0 mm
01:00 PM 15.7°F-9.1°C 10.1°F-12.2°C 78% Calm Calm -- 30.50 in1032.8 mb - 0.00 in0.0 mm 0.00 in0.0 mm
12:59 PM 15.7°F-9.1°C 10.1°F-12.2°C 78% Calm Calm -- 30.50 in1032.8 mb - 0.00 in0.0 mm 0.00 in0.0 mm
12:58 PM 15.7°F-9.1°C 10.1°F-12.2°C 78% Calm Calm -- 30.50 in1032.8 mb - 0.00 in0.0 mm 0.00 in0.0 mm
12:56 PM 15.4°F-9.2°C 10.3°F-12.1°C 80% Calm Calm -- 30.50 in1032.8 mb - 0.00 in0.0 mm 0.00 in0.0 mm
12:55 PM 15.4°F-9.2°C 10.3°F-12.1°C 80% Calm Calm -- 30.50 in1032.8 mb - 0.00 in0.0 mm 0.00 in0.0 mm
12:54 PM 15.4°F-9.2°C 10.3°F-12.1°C 80% Calm Calm -- 30.50 in1032.8 mb - 0.00 in0.0 mm 0.00 in0.0 mm
12:53 PM 15.3°F-9.3°C 10.3°F-12.1°C 80% Calm Calm -- 30.50 in1032.8 mb - 0.00 in0.0 mm 0.00 in0.0 mm
12:52 PM 15.3°F-9.3°C 10.3°F-12.1°C 80% Calm Calm -- 30.50 in1032.8 mb - 0.00 in0.0 mm 0.00 in0.0 mm
12:51 PM 15.3°F-9.3°C 10.2°F-12.1°C 80% Calm Calm -- 30.50 in1032.8 mb - 0.00 in0.0 mm 0.00 in0.0 mm
12:50 PM 15.3°F-9.3°C 10.2°F-12.1°C 80% Calm Calm -- 30.50 in1032.8 mb - 0.00 in0.0 mm 0.00 in0.0 mm
12:49 PM 15.2°F-9.3°C 10.2°F-12.1°C 80% Calm Calm -- 30.50 in1032.8 mb - 0.00 in0.0 mm 0.00 in0.0 mm
12:48 PM 15.2°F-9.3°C 10.4°F-12.0°C 81% Calm Calm -- 30.50 in1032.8 mb - 0.00 in0.0 mm 0.00 in0.0 mm
12:46 PM 14.4°F-9.8°C 9.9°F-12.3°C 82% Calm Calm -- 30.50 in1032.8 mb - 0.00 in0.0 mm 0.00 in0.0 mm
12:45 PM 14.4°F-9.8°C 9.9°F-12.3°C 82% Calm Calm -- 30.50 in1032.8 mb - 0.00 in0.0 mm 0.00 in0.0 mm
12:44 PM 14.4°F-9.8°C 9.9°F-12.3°C 82% Calm Calm -- 30.50 in1032.8 mb - 0.00 in0.0 mm 0.00 in0.0 mm
12:43 PM 14.3°F-9.8°C 9.8°F-12.3°C 82% Calm Calm -- 30.50 in1032.8 mb - 0.00 in0.0 mm 0.00 in0.0 mm
12:42 PM 14.3°F-9.8°C 9.8°F-12.3°C 82% Calm Calm -- 30.50 in1032.8 mb - 0.00 in0.0 mm 0.00 in0.0 mm
12:41 PM 14.3°F-9.8°C 9.8°F-12.3°C 82% Calm Calm -- 30.50 in1032.8 mb - 0.00 in0.0 mm 0.00 in0.0 mm
12:40 PM 14.3°F-9.8°C 9.8°F-12.3°C 82% Calm Calm -- 30.50 in1032.8 mb - 0.00 in0.0 mm 0.00 in0.0 mm
12:39 PM 14.2°F-9.9°C 9.7°F-12.4°C 82% Calm Calm -- 30.50 in1032.8 mb - 0.00 in0.0 mm 0.00 in0.0 mm
12:38 PM 14.2°F-9.9°C 9.7°F-12.4°C 82% Calm Calm -- 30.50 in1032.8 mb - 0.00 in0.0 mm 0.00 in0.0 mm
12:36 PM 13.5°F-10.3°C 9.6°F-12.4°C 84% Calm Calm -- 30.49 in1032.5 mb - 0.00 in0.0 mm 0.00 in0.0 mm
12:35 PM 13.5°F-10.3°C 9.6°F-12.4°C 84% Calm Calm -- 30.49 in1032.5 mb - 0.00 in0.0 mm 0.00 in0.0 mm
12:34 PM 13.5°F-10.3°C 9.6°F-12.4°C 84% Calm Calm -- 30.49 in1032.5 mb - 0.00 in0.0 mm 0.00 in0.0 mm
12:33 PM 13.5°F-10.3°C 9.5°F-12.5°C 84% Calm Calm -- 30.49 in1032.5 mb - 0.00 in0.0 mm 0.00 in0.0 mm
12:32 PM 13.4°F-10.3°C 9.5°F-12.5°C 84% Calm Calm -- 30.49 in1032.5 mb - 0.00 in0.0 mm 0.00 in0.0 mm
12:31 PM 13.4°F-10.3°C 9.5°F-12.5°C 84% Calm Calm -- 30.49 in1032.5 mb - 0.00 in0.0 mm 0.00 in0.0 mm
12:29 PM 13.0°F-10.6°C 9.1°F-12.7°C 84% Calm Calm -- 30.50 in1032.8 mb - 0.00 in0.0 mm 0.00 in0.0 mm
12:28 PM 12.9°F-10.6°C 9.0°F-12.8°C 84% Calm Calm -- 30.50 in1032.8 mb - 0.00 in0.0 mm 0.00 in0.0 mm
12:26 PM 11.9°F-11.2°C 8.6°F-13.0°C 86% Calm Calm -- 30.50 in1032.8 mb - 0.00 in0.0 mm 0.00 in0.0 mm
12:25 PM 11.9°F-11.2°C 8.5°F-13.1°C 86% Calm Calm -- 30.50 in1032.8 mb - 0.00 in0.0 mm 0.00 in0.0 mm
12:24 PM 11.9°F-11.2°C 8.5°F-13.1°C 86% Calm Calm -- 30.50 in1032.8 mb - 0.00 in0.0 mm 0.00 in0.0 mm
12:23 PM 11.9°F-11.2°C 8.5°F-13.1°C 86% Calm Calm -- 30.50 in1032.8 mb - 0.00 in0.0 mm 0.00 in0.0 mm
12:22 PM 11.8°F-11.2°C 8.5°F-13.1°C 86% Calm Calm -- 30.50 in1032.8 mb - 0.00 in0.0 mm 0.00 in0.0 mm
12:21 PM 11.8°F-11.2°C 8.4°F-13.1°C 86% Calm Calm -- 30.50 in1032.8 mb - 0.00 in0.0 mm 0.00 in0.0 mm
12:20 PM 11.8°F-11.2°C 8.4°F-13.1°C 86% Calm Calm -- 30.50 in1032.8 mb - 0.00 in0.0 mm 0.00 in0.0 mm
12:19 PM 11.8°F-11.2°C 8.4°F-13.1°C 86% Calm Calm -- 30.50 in1032.8 mb - 0.00 in0.0 mm 0.00 in0.0 mm
12:18 PM 11.8°F-11.2°C 8.4°F-13.1°C 86% Calm Calm -- 30.50 in1032.8 mb - 0.00 in0.0 mm 0.00 in0.0 mm
12:16 PM 11.3°F-11.5°C 8.2°F-13.2°C 87% Calm Calm -- 30.50 in1032.8 mb - 0.00 in0.0 mm 0.00 in0.0 mm
12:15 PM 11.3°F-11.5°C 8.2°F-13.2°C 87% Calm Calm -- 30.50 in1032.8 mb - 0.00 in0.0 mm 0.00 in0.0 mm
12:14 PM 11.3°F-11.5°C 8.2°F-13.2°C 87% Calm Calm -- 30.50 in1032.8 mb - 0.00 in0.0 mm 0.00 in0.0 mm
12:13 PM 11.3°F-11.5°C 8.2°F-13.2°C 87% Calm Calm -- 30.50 in1032.8 mb - 0.00 in0.0 mm 0.00 in0.0 mm
12:12 PM 11.3°F-11.5°C 8.1°F-13.3°C 87% Calm Calm -- 30.50 in1032.8 mb - 0.00 in0.0 mm 0.00 in0.0 mm
12:11 PM 11.2°F-11.6°C 8.1°F-13.3°C 87% Calm Calm -- 30.50 in1032.8 mb - 0.00 in0.0 mm 0.00 in0.0 mm
12:10 PM 11.2°F-11.6°C 8.1°F-13.3°C 87% Calm Calm -- 30.50 in1032.8 mb - 0.00 in0.0 mm 0.00 in0.0 mm
12:09 PM 11.2°F-11.6°C 8.1°F-13.3°C 87% Calm Calm -- 30.50 in1032.8 mb - 0.00 in0.0 mm 0.00 in0.0 mm
12:08 PM 11.2°F-11.6°C 8.1°F-13.3°C 87% Calm Calm -- 30.50 in1032.8 mb - 0.00 in0.0 mm 0.00 in0.0 mm
12:07 PM 11.2°F-11.6°C 8.1°F-13.3°C 87% Calm Calm -- 30.50 in1032.8 mb - 0.00 in0.0 mm 0.00 in0.0 mm
12:05 PM 10.5°F-11.9°C 7.7°F-13.5°C 88% Calm Calm -- 30.50 in1032.8 mb - 0.00 in0.0 mm 0.00 in0.0 mm
12:04 PM 10.5°F-11.9°C 7.7°F-13.5°C 88% Calm Calm -- 30.50 in1032.8 mb - 0.00 in0.0 mm 0.00 in0.0 mm
12:03 PM 10.5°F-11.9°C 7.6°F-13.6°C 88% Calm Calm -- 30.50 in1032.8 mb - 0.00 in0.0 mm 0.00 in0.0 mm
12:02 PM 10.5°F-11.9°C 7.6°F-13.6°C 88% Calm Calm -- 30.50 in1032.8 mb - 0.00 in0.0 mm 0.00 in0.0 mm
12:01 PM 10.4°F-12.0°C 7.6°F-13.6°C 88% Calm Calm -- 30.50 in1032.8 mb - 0.00 in0.0 mm 0.00 in0.0 mm
12:00 PM 10.4°F-12.0°C 7.6°F-13.6°C 88% Calm Calm -- 30.50 in1032.8 mb - 0.00 in0.0 mm 0.00 in0.0 mm
11:59 AM 10.4°F-12.0°C 7.5°F-13.6°C 88% Calm Calm -- 30.50 in1032.8 mb - 0.00 in0.0 mm 0.00 in0.0 mm
11:58 AM 10.3°F-12.1°C 7.5°F-13.6°C 88% Calm Calm -- 30.49 in1032.5 mb - 0.00 in0.0 mm 0.00 in0.0 mm
11:56 AM 9.0°F-12.8°C 6.4°F-14.2°C 89% Calm Calm -- 30.49 in1032.5 mb - 0.00 in0.0 mm 0.00 in0.0 mm
11:55 AM 9.0°F-12.8°C 6.4°F-14.2°C 89% Calm Calm -- 30.49 in1032.5 mb - 0.00 in0.0 mm 0.00 in0.0 mm
11:54 AM 9.0°F-12.8°C 6.4°F-14.2°C 89% Calm Calm -- 30.49 in1032.5 mb - 0.00 in0.0 mm 0.00 in0.0 mm
11:53 AM 8.9°F-12.8°C 6.4°F-14.2°C 89% Calm Calm -- 30.49 in1032.5 mb - 0.00 in0.0 mm 0.00 in0.0 mm
11:52 AM 8.9°F-12.8°C 6.3°F-14.3°C 89% Calm Calm -- 30.49 in1032.5 mb - 0.00 in0.0 mm 0.00 in0.0 mm
11:51 AM 8.9°F-12.8°C 6.3°F-14.3°C 89% Calm Calm -- 30.49 in1032.5 mb - 0.00 in0.0 mm 0.00 in0.0 mm
11:50 AM 8.9°F-12.8°C 6.3°F-14.3°C 89% Calm Calm -- 30.49 in1032.5 mb - 0.00 in0.0 mm 0.00 in0.0 mm
11:49 AM 8.9°F-12.8°C 6.3°F-14.3°C 89% Calm Calm -- 30.49 in1032.5 mb - 0.00 in0.0 mm 0.00 in0.0 mm
11:48 AM 8.8°F-12.9°C 6.3°F-14.3°C 89% Calm Calm -- 30.49 in1032.5 mb - 0.00 in0.0 mm 0.00 in0.0 mm
11:47 AM 8.8°F-12.9°C 6.2°F-14.3°C 89% Calm Calm -- 30.49 in1032.5 mb - 0.00 in0.0 mm 0.00 in0.0 mm
11:46 AM 8.8°F-12.9°C 6.2°F-14.3°C 89% Calm Calm -- 30.49 in1032.5 mb - 0.00 in0.0 mm 0.00 in0.0 mm
11:45 AM 8.7°F-12.9°C 6.2°F-14.3°C 89% Calm Calm -- 30.49 in1032.5 mb - 0.00 in0.0 mm 0.00 in0.0 mm
11:44 AM 8.7°F-12.9°C 6.1°F-14.4°C 89% Calm Calm -- 30.49 in1032.5 mb - 0.00 in0.0 mm 0.00 in0.0 mm
11:43 AM 8.7°F-12.9°C 6.1°F-14.4°C 89% Calm Calm -- 30.49 in1032.5 mb - 0.00 in0.0 mm 0.00 in0.0 mm
11:42 AM 8.7°F-12.9°C 6.1°F-14.4°C 89% Calm Calm -- 30.49 in1032.5 mb - 0.00 in0.0 mm 0.00 in0.0 mm
11:41 AM 8.7°F-12.9°C 6.1°F-14.4°C 89% Calm Calm -- 30.49 in1032.5 mb - 0.00 in0.0 mm 0.00 in0.0 mm
11:40 AM 8.6°F-13.0°C 6.1°F-14.4°C 89% Calm Calm -- 30.49 in1032.5 mb - 0.00 in0.0 mm 0.00 in0.0 mm
11:39 AM 8.6°F-13.0°C 6.0°F-14.4°C 89% Calm Calm -- 30.49 in1032.5 mb - 0.00 in0.0 mm 0.00 in0.0 mm
11:38 AM 8.6°F-13.0°C 6.0°F-14.4°C 89% Calm Calm -- 30.49 in1032.5 mb - 0.00 in0.0 mm 0.00 in0.0 mm
11:36 AM 7.8°F-13.4°C 5.5°F-14.7°C 90% Calm Calm -- 30.49 in1032.5 mb - 0.00 in0.0 mm 0.00 in0.0 mm
11:35 AM 7.8°F-13.4°C 5.4°F-14.8°C 90% Calm Calm -- 30.49 in1032.5 mb - 0.00 in0.0 mm 0.00 in0.0 mm
11:34 AM 7.7°F-13.5°C 5.4°F-14.8°C 90% Calm Calm -- 30.49 in1032.5 mb - 0.00 in0.0 mm 0.00 in0.0 mm
11:33 AM 7.7°F-13.5°C 5.4°F-14.8°C 90% Calm Calm -- 30.49 in1032.5 mb - 0.00 in0.0 mm 0.00 in0.0 mm
11:32 AM 7.7°F-13.5°C 5.4°F-14.8°C 90% Calm Calm -- 30.49 in1032.5 mb - 0.00 in0.0 mm 0.00 in0.0 mm
11:31 AM 7.7°F-13.5°C 5.4°F-14.8°C 90% Calm Calm -- 30.49 in1032.5 mb - 0.00 in0.0 mm 0.00 in0.0 mm
11:30 AM 7.7°F-13.5°C 5.3°F-14.8°C 90% Calm Calm -- 30.49 in1032.5 mb - 0.00 in0.0 mm 0.00 in0.0 mm
11:29 AM 7.6°F-13.6°C 5.3°F-14.8°C 90% Calm Calm -- 30.49 in1032.5 mb - 0.00 in0.0 mm 0.00 in0.0 mm
11:28 AM 7.6°F-13.6°C 5.3°F-14.8°C 90% Calm Calm -- 30.49 in1032.5 mb - 0.00 in0.0 mm 0.00 in0.0 mm
11:26 AM 6.4°F-14.2°C 4.1°F-15.5°C 90% Calm Calm -- 30.48 in1032.2 mb - 0.00 in0.0 mm 0.00 in0.0 mm
11:25 AM 6.4°F-14.2°C 4.1°F-15.5°C 90% Calm Calm -- 30.48 in1032.2 mb - 0.00 in0.0 mm 0.00 in0.0 mm
11:24 AM 6.4°F-14.2°C 4.1°F-15.5°C 90% Calm Calm -- 30.48 in1032.2 mb - 0.00 in0.0 mm 0.00 in0.0 mm
11:23 AM 6.4°F-14.2°C 4.1°F-15.5°C 90% Calm Calm -- 30.48 in1032.2 mb - 0.00 in0.0 mm 0.00 in0.0 mm
11:22 AM 6.3°F-14.3°C 4.0°F-15.6°C 90% Calm Calm -- 30.48 in1032.2 mb - 0.00 in0.0 mm 0.00 in0.0 mm
11:21 AM 6.3°F-14.3°C 4.0°F-15.6°C 90% Calm Calm -- 30.48 in1032.2 mb - 0.00 in0.0 mm 0.00 in0.0 mm
11:20 AM 6.3°F-14.3°C 4.0°F-15.6°C 90% Calm Calm -- 30.48 in1032.2 mb - 0.00 in0.0 mm 0.00 in0.0 mm
11:19 AM 6.2°F-14.3°C 3.9°F-15.6°C 90% Calm Calm -- 30.48 in1032.2 mb - 0.00 in0.0 mm 0.00 in0.0 mm
11:18 AM 6.2°F-14.3°C 3.9°F-15.6°C 90% Calm Calm -- 30.48 in1032.2 mb - 0.00 in0.0 mm 0.00 in0.0 mm
11:17 AM 6.1°F-14.4°C 3.8°F-15.7°C 90% Calm Calm -- 30.48 in1032.2 mb - 0.00 in0.0 mm 0.00 in0.0 mm
11:16 AM 6.1°F-14.4°C 3.8°F-15.7°C 90% Calm Calm -- 30.48 in1032.2 mb - 0.00 in0.0 mm 0.00 in0.0 mm
11:15 AM 6.1°F-14.4°C 3.8°F-15.7°C 90% Calm Calm -- 30.48 in1032.2 mb - 0.00 in0.0 mm 0.00 in0.0 mm
11:14 AM 6.0°F-14.4°C 3.7°F-15.7°C 90% Calm Calm -- 30.48 in1032.2 mb - 0.00 in0.0 mm 0.00 in0.0 mm
11:13 AM 5.9°F-14.5°C 3.6°F-15.8°C 90% Calm Calm -- 30.48 in1032.2 mb - 0.00 in0.0 mm 0.00 in0.0 mm
11:11 AM 4.2°F-15.4°C 1.9°F-16.7°C 90% Calm Calm -- 30.48 in1032.2 mb - 0.00 in0.0 mm 0.00 in0.0 mm
11:10 AM 4.1°F-15.5°C 1.8°F-16.8°C 90% Calm Calm -- 30.48 in1032.2 mb - 0.00 in0.0 mm 0.00 in0.0 mm
11:09 AM 4.1°F-15.5°C 1.8°F-16.8°C 90% Calm Calm -- 30.48 in1032.2 mb - 0.00 in0.0 mm 0.00 in0.0 mm
11:08 AM 4.0°F-15.6°C 1.8°F-16.8°C 90% Calm Calm -- 30.48 in1032.2 mb - 0.00 in0.0 mm 0.00 in0.0 mm
11:07 AM 4.0°F-15.6°C 1.7°F-16.8°C 90% Calm Calm -- 30.48 in1032.2 mb - 0.00 in0.0 mm 0.00 in0.0 mm
11:06 AM 4.0°F-15.6°C 1.7°F-16.8°C 90% Calm Calm -- 30.48 in1032.2 mb - 0.00 in0.0 mm 0.00 in0.0 mm
11:05 AM 3.9°F-15.6°C 1.6°F-16.9°C 90% Calm Calm -- 30.48 in1032.2 mb - 0.00 in0.0 mm 0.00 in0.0 mm
11:04 AM 3.9°F-15.6°C 1.6°F-16.9°C 90% Calm Calm -- 30.48 in1032.2 mb - 0.00 in0.0 mm 0.00 in0.0 mm
11:03 AM 3.8°F-15.7°C 1.6°F-16.9°C 90% Calm Calm -- 30.48 in1032.2 mb - 0.00 in0.0 mm 0.00 in0.0 mm
11:02 AM 3.8°F-15.7°C 1.5°F-16.9°C 90% Calm Calm -- 30.48 in1032.2 mb - 0.00 in0.0 mm 0.00 in0.0 mm
11:01 AM 3.8°F-15.7°C 1.5°F-16.9°C 90% Calm Calm -- 30.48 in1032.2 mb - 0.00 in0.0 mm 0.00 in0.0 mm
11:00 AM 3.7°F-15.7°C 1.5°F-16.9°C 90% Calm Calm -- 30.48 in1032.2 mb - 0.00 in0.0 mm 0.00 in0.0 mm
10:59 AM 3.7°F-15.7°C 1.4°F-17.0°C 90% Calm Calm -- 30.48 in1032.2 mb - 0.00 in0.0 mm 0.00 in0.0 mm
10:58 AM 3.6°F-15.8°C 1.3°F-17.1°C 90% Calm Calm -- 30.48 in1032.2 mb - 0.00 in0.0 mm 0.00 in0.0 mm
10:56 AM 1.8°F-16.8°C -0.7°F-18.2°C 89% Calm Calm -- 30.48 in1032.2 mb - 0.00 in0.0 mm 0.00 in0.0 mm
10:55 AM 1.7°F-16.8°C -0.8°F-18.2°C 89% Calm Calm -- 30.48 in1032.2 mb - 0.00 in0.0 mm 0.00 in0.0 mm
10:54 AM 1.7°F-16.8°C -0.8°F-18.2°C 89% Calm Calm -- 30.48 in1032.2 mb - 0.00 in0.0 mm 0.00 in0.0 mm
10:53 AM 1.7°F-16.8°C -0.8°F-18.2°C 89% Calm Calm -- 30.48 in1032.2 mb - 0.00 in0.0 mm 0.00 in0.0 mm
10:52 AM 1.6°F-16.9°C -0.9°F-18.3°C 89% Calm Calm -- 30.48 in1032.2 mb - 0.00 in0.0 mm 0.00 in0.0 mm
10:51 AM 1.6°F-16.9°C -0.9°F-18.3°C 89% Calm Calm -- 30.48 in1032.2 mb - 0.00 in0.0 mm 0.00 in0.0 mm
10:50 AM 1.6°F-16.9°C -0.9°F-18.3°C 89% Calm Calm -- 30.48 in1032.2 mb - 0.00 in0.0 mm 0.00 in0.0 mm
10:49 AM 1.5°F-16.9°C -1.0°F-18.3°C 89% Calm Calm -- 30.48 in1032.2 mb - 0.00 in0.0 mm 0.00 in0.0 mm
10:48 AM 1.5°F-16.9°C -1.0°F-18.3°C 89% Calm Calm -- 30.48 in1032.2 mb - 0.00 in0.0 mm 0.00 in0.0 mm
10:47 AM 1.5°F-16.9°C -1.0°F-18.3°C 89% Calm Calm -- 30.48 in1032.2 mb - 0.00 in0.0 mm 0.00 in0.0 mm
10:46 AM 1.4°F-17.0°C -1.1°F-18.4°C 89% Calm Calm -- 30.48 in1032.2 mb - 0.00 in0.0 mm 0.00 in0.0 mm
10:45 AM 1.4°F-17.0°C -1.1°F-18.4°C 89% Calm Calm -- 30.48 in1032.2 mb - 0.00 in0.0 mm 0.00 in0.0 mm
10:44 AM 1.3°F-17.1°C -1.1°F-18.4°C 89% Calm Calm -- 30.48 in1032.2 mb - 0.00 in0.0 mm 0.00 in0.0 mm
10:43 AM 1.3°F-17.1°C -1.2°F-18.4°C 89% Calm Calm -- 30.48 in1032.2 mb - 0.00 in0.0 mm 0.00 in0.0 mm
10:41 AM -0.4°F-18.0°C -3.1°F-19.5°C 88% Calm Calm -- 30.48 in1032.2 mb - 0.00 in0.0 mm 0.00 in0.0 mm
10:40 AM -0.4°F-18.0°C -3.1°F-19.5°C 88% Calm Calm -- 30.48 in1032.2 mb - 0.00 in0.0 mm 0.00 in0.0 mm
10:39 AM -0.4°F-18.0°C -3.1°F-19.5°C 88% Calm Calm -- 30.48 in1032.2 mb - 0.00 in0.0 mm 0.00 in0.0 mm
10:38 AM -0.5°F-18.1°C -3.2°F-19.6°C 88% Calm Calm -- 30.48 in1032.2 mb - 0.00 in0.0 mm 0.00 in0.0 mm
10:37 AM -0.5°F-18.1°C -3.2°F-19.6°C 88% Calm Calm -- 30.48 in1032.2 mb - 0.00 in0.0 mm 0.00 in0.0 mm
10:36 AM -0.5°F-18.1°C -3.2°F-19.6°C 88% Calm Calm -- 30.48 in1032.2 mb - 0.00 in0.0 mm 0.00 in0.0 mm
10:35 AM -0.6°F-18.1°C -3.3°F-19.6°C 88% Calm Calm -- 30.48 in1032.2 mb - 0.00 in0.0 mm 0.00 in0.0 mm
10:34 AM -0.6°F-18.1°C -3.3°F-19.6°C 88% Calm Calm -- 30.48 in1032.2 mb - 0.00 in0.0 mm 0.00 in0.0 mm
10:33 AM -0.7°F-18.2°C -3.4°F-19.7°C 88% Calm Calm -- 30.48 in1032.2 mb - 0.00 in0.0 mm 0.00 in0.0 mm
10:32 AM -0.7°F-18.2°C -3.4°F-19.7°C 88% Calm Calm -- 30.48 in1032.2 mb - 0.00 in0.0 mm 0.00 in0.0 mm
10:31 AM -0.7°F-18.2°C -3.4°F-19.7°C 88% Calm Calm -- 30.48 in1032.2 mb - 0.00 in0.0 mm 0.00 in0.0 mm
10:30 AM -0.8°F-18.2°C -3.5°F-19.7°C 88% Calm Calm -- 30.48 in1032.2 mb - 0.00 in0.0 mm 0.00 in0.0 mm
10:29 AM -0.8°F-18.2°C -3.5°F-19.7°C 88% Calm Calm -- 30.48 in1032.2 mb - 0.00 in0.0 mm 0.00 in0.0 mm
10:28 AM -0.9°F-18.3°C -3.6°F-19.8°C 88% Calm Calm -- 30.48 in1032.2 mb - 0.00 in0.0 mm 0.00 in0.0 mm
10:26 AM -2.4°F-19.1°C -5.6°F-20.9°C 86% Calm Calm -- 30.48 in1032.2 mb - 0.00 in0.0 mm 0.00 in0.0 mm
10:25 AM -2.4°F-19.1°C -5.6°F-20.9°C 86% Calm Calm -- 30.48 in1032.2 mb - 0.00 in0.0 mm 0.00 in0.0 mm
10:24 AM -2.5°F-19.2°C -5.6°F-20.9°C 86% Calm Calm -- 30.48 in1032.2 mb - 0.00 in0.0 mm 0.00 in0.0 mm
10:23 AM -2.5°F-19.2°C -5.6°F-20.9°C 86% Calm Calm -- 30.48 in1032.2 mb - 0.00 in0.0 mm 0.00 in0.0 mm
10:22 AM -2.5°F-19.2°C -5.7°F-20.9°C 86% Calm Calm -- 30.48 in1032.2 mb - 0.00 in0.0 mm 0.00 in0.0 mm
10:21 AM -2.5°F-19.2°C -5.7°F-20.9°C 86% Calm Calm -- 30.48 in1032.2 mb - 0.00 in0.0 mm 0.00 in0.0 mm
10:20 AM -2.6°F-19.2°C -5.7°F-20.9°C 86% Calm Calm -- 30.48 in1032.2 mb - 0.00 in0.0 mm 0.00 in0.0 mm
10:19 AM -2.6°F-19.2°C -5.7°F-20.9°C 86% Calm Calm -- 30.48 in1032.2 mb - 0.00 in0.0 mm 0.00 in0.0 mm
10:18 AM -2.6°F-19.2°C -5.7°F-20.9°C 86% Calm Calm -- 30.48 in1032.2 mb - 0.00 in0.0 mm 0.00 in0.0 mm
10:17 AM -2.6°F-19.2°C -5.8°F-21.0°C 86% Calm Calm -- 30.48 in1032.2 mb - 0.00 in0.0 mm 0.00 in0.0 mm
10:16 AM -2.6°F-19.2°C -5.8°F-21.0°C 86% Calm Calm -- 30.48 in1032.2 mb - 0.00 in0.0 mm 0.00 in0.0 mm
10:15 AM -2.6°F-19.2°C -5.8°F-21.0°C 86% Calm Calm -- 30.48 in1032.2 mb - 0.00 in0.0 mm 0.00 in0.0 mm
10:14 AM -2.7°F-19.3°C -5.9°F-21.1°C 86% Calm Calm -- 30.48 in1032.2 mb - 0.00 in0.0 mm 0.00 in0.0 mm
10:13 AM -2.7°F-19.3°C -5.9°F-21.1°C 86% Calm Calm -- 30.48 in1032.2 mb - 0.00 in0.0 mm 0.00 in0.0 mm
10:11 AM -3.5°F-19.7°C -6.6°F-21.4°C 86% Calm Calm -- 30.47 in1031.8 mb - 0.00 in0.0 mm 0.00 in0.0 mm
10:10 AM -3.5°F-19.7°C -6.6°F-21.4°C 86% Calm Calm -- 30.47 in1031.8 mb - 0.00 in0.0 mm 0.00 in0.0 mm
10:09 AM -3.5°F-19.7°C -6.6°F-21.4°C 86% Calm Calm -- 30.47 in1031.8 mb - 0.00 in0.0 mm 0.00 in0.0 mm
10:08 AM -3.5°F-19.7°C -6.7°F-21.5°C 86% Calm Calm -- 30.47 in1031.8 mb - 0.00 in0.0 mm 0.00 in0.0 mm
10:07 AM -3.5°F-19.7°C -6.7°F-21.5°C 86% Calm Calm -- 30.47 in1031.8 mb - 0.00 in0.0 mm 0.00 in0.0 mm
10:06 AM -3.5°F-19.7°C -6.7°F-21.5°C 86% Calm Calm -- 30.47 in1031.8 mb - 0.00 in0.0 mm 0.00 in0.0 mm
10:05 AM -3.6°F-19.8°C -6.7°F-21.5°C 86% Calm Calm -- 30.47 in1031.8 mb - 0.00 in0.0 mm 0.00 in0.0 mm
10:04 AM -3.6°F-19.8°C -6.7°F-21.5°C 86% Calm Calm -- 30.47 in1031.8 mb - 0.00 in0.0 mm 0.00 in0.0 mm
10:03 AM -3.6°F-19.8°C -6.7°F-21.5°C 86% Calm Calm -- 30.47 in1031.8 mb - 0.00 in0.0 mm 0.00 in0.0 mm
10:01 AM -3.8°F-19.9°C -7.2°F-21.8°C 85% Calm Calm -- 30.47 in1031.8 mb - 0.00 in0.0 mm 0.00 in0.0 mm
10:00 AM -3.8°F-19.9°C -7.2°F-21.8°C 85% Calm Calm -- 30.47 in1031.8 mb - 0.00 in0.0 mm 0.00 in0.0 mm
09:59 AM -3.8°F-19.9°C -7.2°F-21.8°C 85% Calm Calm -- 30.47 in1031.8 mb - 0.00 in0.0 mm 0.00 in0.0 mm
09:58 AM -3.8°F-19.9°C -7.2°F-21.8°C 85% Calm Calm -- 30.47 in1031.8 mb - 0.00 in0.0 mm 0.00 in0.0 mm
09:57 AM -3.8°F-19.9°C -7.2°F-21.8°C 85% Calm Calm -- 30.47 in1031.8 mb - 0.00 in0.0 mm 0.00 in0.0 mm
09:56 AM -3.8°F-19.9°C -7.2°F-21.8°C 85% Calm Calm -- 30.47 in1031.8 mb - 0.00 in0.0 mm 0.00 in0.0 mm
09:55 AM -3.8°F-19.9°C -7.2°F-21.8°C 85% Calm Calm -- 30.47 in1031.8 mb - 0.00 in0.0 mm 0.00 in0.0 mm
09:54 AM -3.8°F-19.9°C -7.2°F-21.8°C 85% Calm Calm -- 30.47 in1031.8 mb - 0.00 in0.0 mm 0.00 in0.0 mm
09:53 AM -3.8°F-19.9°C -7.2°F-21.8°C 85% Calm Calm -- 30.47 in1031.8 mb - 0.00 in0.0 mm 0.00 in0.0 mm
09:52 AM -3.8°F-19.9°C -7.2°F-21.8°C 85% Calm Calm -- 30.47 in1031.8 mb - 0.00 in0.0 mm 0.00 in0.0 mm
09:51 AM -3.8°F-19.9°C -7.2°F-21.8°C 85% Calm Calm -- 30.47 in1031.8 mb - 0.00 in0.0 mm 0.00 in0.0 mm
09:50 AM -3.8°F-19.9°C -7.2°F-21.8°C 85% Calm Calm -- 30.47 in1031.8 mb - 0.00 in0.0 mm 0.00 in0.0 mm
09:49 AM -3.8°F-19.9°C -7.2°F-21.8°C 85% Calm Calm -- 30.47 in1031.8 mb - 0.00 in0.0 mm 0.00 in0.0 mm
09:47 AM -3.9°F-19.9°C -7.3°F-21.8°C 85% Calm Calm -- 30.47 in1031.8 mb - 0.00 in0.0 mm 0.00 in0.0 mm
09:45 AM -4.5°F-20.3°C -7.8°F-22.1°C 85% Calm Calm -- 30.47 in1031.8 mb - 0.00 in0.0 mm 0.00 in0.0 mm
09:44 AM -4.5°F-20.3°C -7.9°F-22.2°C 85% Calm Calm -- 30.47 in1031.8 mb - 0.00 in0.0 mm 0.00 in0.0 mm
09:42 AM -5.2°F-20.7°C -8.8°F-22.7°C 84% Calm Calm -- 30.47 in1031.8 mb - 0.00 in0.0 mm 0.00 in0.0 mm
09:40 AM -5.3°F-20.7°C -8.9°F-22.7°C 84% Calm Calm -- 30.47 in1031.8 mb - 0.00 in0.0 mm 0.00 in0.0 mm
09:24 AM -5.3°F-20.7°C -8.9°F-22.7°C 84% Calm Calm -- 30.47 in1031.8 mb - 0.00 in0.0 mm 0.00 in0.0 mm
09:00 AM -5.3°F-20.7°C -8.9°F-22.7°C 84% Calm Calm -- 30.47 in1031.8 mb - 0.00 in0.0 mm 0.00 in0.0 mm
08:59 AM -5.3°F-20.7°C -8.9°F-22.7°C 84% Calm Calm -- 30.47 in1031.8 mb - 0.00 in0.0 mm 0.00 in0.0 mm
08:57 AM -5.3°F-20.7°C -8.9°F-22.7°C 84% Calm Calm -- 30.46 in1031.5 mb - 0.00 in0.0 mm 0.00 in0.0 mm
08:55 AM -5.3°F-20.7°C -8.9°F-22.7°C 84% Calm Calm -- 30.46 in1031.5 mb - 0.00 in0.0 mm 0.00 in0.0 mm
08:54 AM -5.3°F-20.7°C -8.9°F-22.7°C 84% Calm Calm -- 30.46 in1031.5 mb - 0.00 in0.0 mm 0.00 in0.0 mm
08:52 AM -5.2°F-20.7°C -8.8°F-22.7°C 84% Calm Calm -- 30.46 in1031.5 mb - 0.00 in0.0 mm 0.00 in0.0 mm
08:50 AM -5.1°F-20.6°C -8.7°F-22.6°C 84% Calm Calm -- 30.46 in1031.5 mb - 0.00 in0.0 mm 0.00 in0.0 mm
08:49 AM -5.1°F-20.6°C -8.7°F-22.6°C 84% Calm Calm -- 30.46 in1031.5 mb - 0.00 in0.0 mm 0.00 in0.0 mm
08:47 AM -5.1°F-20.6°C -8.7°F-22.6°C 84% Calm Calm -- 30.46 in1031.5 mb - 0.00 in0.0 mm 0.00 in0.0 mm
08:45 AM -5.0°F-20.6°C -8.6°F-22.6°C 84% Calm Calm -- 30.46 in1031.5 mb - 0.00 in0.0 mm 0.00 in0.0 mm
08:44 AM -5.0°F-20.6°C -8.6°F-22.6°C 84% Calm Calm -- 30.46 in1031.5 mb - 0.00 in0.0 mm 0.00 in0.0 mm
08:43 AM -5.0°F-20.6°C -8.6°F-22.6°C 84% Calm Calm -- 30.46 in1031.5 mb - 0.00 in0.0 mm 0.00 in0.0 mm
08:41 AM -5.0°F-20.6°C -8.6°F-22.6°C 84% Calm Calm -- 30.46 in1031.5 mb - 0.00 in0.0 mm 0.00 in0.0 mm
08:40 AM -5.0°F-20.6°C -8.6°F-22.6°C 84% Calm Calm -- 30.46 in1031.5 mb - 0.00 in0.0 mm 0.00 in0.0 mm
08:39 AM -5.0°F-20.6°C -8.6°F-22.6°C 84% Calm Calm -- 30.46 in1031.5 mb - 0.00 in0.0 mm 0.00 in0.0 mm
08:37 AM -4.9°F-20.5°C -8.5°F-22.5°C 84% Calm Calm -- 30.46 in1031.5 mb - 0.00 in0.0 mm 0.00 in0.0 mm
08:35 AM -4.8°F-20.4°C -8.7°F-22.6°C 83% Calm Calm -- 30.45 in1031.2 mb - 0.00 in0.0 mm 0.00 in0.0 mm
08:34 AM -4.8°F-20.4°C -8.7°F-22.6°C 83% Calm Calm -- 30.45 in1031.2 mb - 0.00 in0.0 mm 0.00 in0.0 mm
08:33 AM -4.8°F-20.4°C -8.7°F-22.6°C 83% Calm Calm -- 30.45 in1031.2 mb - 0.00 in0.0 mm 0.00 in0.0 mm
08:31 AM -4.7°F-20.4°C -8.5°F-22.5°C 83% Calm Calm -- 30.45 in1031.2 mb - 0.00 in0.0 mm 0.00 in0.0 mm
08:30 AM -4.7°F-20.4°C -8.5°F-22.5°C 83% Calm Calm -- 30.45 in1031.2 mb - 0.00 in0.0 mm 0.00 in0.0 mm
08:28 AM -4.4°F-20.2°C -8.0°F-22.2°C 84% Calm Calm -- 30.45 in1031.2 mb - 0.00 in0.0 mm 0.00 in0.0 mm
08:27 AM -4.4°F-20.2°C -8.0°F-22.2°C 84% Calm Calm -- 30.45 in1031.2 mb - 0.00 in0.0 mm 0.00 in0.0 mm
08:24 AM -4.2°F-20.1°C -7.8°F-22.1°C 84% Calm Calm -- 30.45 in1031.2 mb - 0.00 in0.0 mm 0.00 in0.0 mm
08:22 AM -4.2°F-20.1°C -7.8°F-22.1°C 84% Calm Calm -- 30.45 in1031.2 mb - 0.00 in0.0 mm 0.00 in0.0 mm
08:20 AM -4.1°F-20.1°C -7.7°F-22.1°C 84% Calm Calm -- 30.45 in1031.2 mb - 0.00 in0.0 mm 0.00 in0.0 mm
08:19 AM -4.1°F-20.1°C -7.7°F-22.1°C 84% Calm Calm -- 30.45 in1031.2 mb - 0.00 in0.0 mm 0.00 in0.0 mm
08:18 AM -4.1°F-20.1°C -7.7°F-22.1°C 84% Calm Calm -- 30.45 in1031.2 mb - 0.00 in0.0 mm 0.00 in0.0 mm
08:16 AM -3.8°F-19.9°C -7.7°F-22.1°C 83% Calm Calm -- 30.45 in1031.2 mb - 0.00 in0.0 mm 0.00 in0.0 mm
08:15 AM -3.8°F-19.9°C -7.7°F-22.1°C 83% Calm Calm -- 30.45 in1031.2 mb - 0.00 in0.0 mm 0.00 in0.0 mm
08:14 AM -3.8°F-19.9°C -7.7°F-22.1°C 83% Calm Calm -- 30.45 in1031.2 mb - 0.00 in0.0 mm 0.00 in0.0 mm
08:13 AM -3.8°F-19.9°C -7.7°F-22.1°C 83% Calm Calm -- 30.45 in1031.2 mb - 0.00 in0.0 mm 0.00 in0.0 mm
08:11 AM -3.6°F-19.8°C -7.2°F-21.8°C 84% Calm Calm -- 30.45 in1031.2 mb - 0.00 in0.0 mm 0.00 in0.0 mm
08:10 AM -3.6°F-19.8°C -7.2°F-21.8°C 84% Calm Calm -- 30.45 in1031.2 mb - 0.00 in0.0 mm 0.00 in0.0 mm
08:08 AM -3.3°F-19.6°C -6.7°F-21.5°C 85% Calm Calm -- 30.46 in1031.5 mb - 0.00 in0.0 mm 0.00 in0.0 mm
08:07 AM -3.3°F-19.6°C -6.7°F-21.5°C 85% Calm Calm -- 30.46 in1031.5 mb - 0.00 in0.0 mm 0.00 in0.0 mm
08:05 AM -3.2°F-19.6°C -6.6°F-21.4°C 85% Calm Calm -- 30.46 in1031.5 mb - 0.00 in0.0 mm 0.00 in0.0 mm
08:04 AM -3.2°F-19.6°C -6.6°F-21.4°C 85% Calm Calm -- 30.46 in1031.5 mb - 0.00 in0.0 mm 0.00 in0.0 mm
08:03 AM -3.2°F-19.6°C -6.6°F-21.4°C 85% Calm Calm -- 30.46 in1031.5 mb - 0.00 in0.0 mm 0.00 in0.0 mm
08:01 AM -3.1°F-19.5°C -6.5°F-21.4°C 85% Calm Calm -- 30.46 in1031.5 mb - 0.00 in0.0 mm 0.00 in0.0 mm
08:00 AM -3.1°F-19.5°C -6.5°F-21.4°C 85% Calm Calm -- 30.46 in1031.5 mb - 0.00 in0.0 mm 0.00 in0.0 mm
07:59 AM -3.1°F-19.5°C -6.5°F-21.4°C 85% Calm Calm -- 30.46 in1031.5 mb - 0.00 in0.0 mm 0.00 in0.0 mm
07:58 AM -3.1°F-19.5°C -6.5°F-21.4°C 85% Calm Calm -- 30.46 in1031.5 mb - 0.00 in0.0 mm 0.00 in0.0 mm
07:56 AM -3.0°F-19.4°C -6.4°F-21.3°C 85% Calm Calm -- 30.46 in1031.5 mb - 0.00 in0.0 mm 0.00 in0.0 mm
07:55 AM -3.0°F-19.4°C -6.4°F-21.3°C 85% Calm Calm -- 30.46 in1031.5 mb - 0.00 in0.0 mm 0.00 in0.0 mm
07:54 AM -3.0°F-19.4°C -6.3°F-21.3°C 85% Calm Calm -- 30.45 in1031.2 mb - 0.00 in0.0 mm 0.00 in0.0 mm
07:53 AM -3.0°F-19.4°C -6.3°F-21.3°C 85% Calm Calm -- 30.46 in1031.5 mb - 0.00 in0.0 mm 0.00 in0.0 mm
07:51 AM -2.8°F-19.3°C -6.2°F-21.2°C 85% Calm Calm -- 30.45 in1031.2 mb - 0.00 in0.0 mm 0.00 in0.0 mm
07:50 AM -2.8°F-19.3°C -6.2°F-21.2°C 85% Calm Calm -- 30.45 in1031.2 mb - 0.00 in0.0 mm 0.00 in0.0 mm
07:49 AM -2.8°F-19.3°C -6.2°F-21.2°C 85% Calm Calm -- 30.45 in1031.2 mb - 0.00 in0.0 mm 0.00 in0.0 mm
07:48 AM -2.8°F-19.3°C -6.2°F-21.2°C 85% Calm Calm -- 30.45 in1031.2 mb - 0.00 in0.0 mm 0.00 in0.0 mm
07:47 AM -2.8°F-19.3°C -6.2°F-21.2°C 85% Calm Calm -- 30.45 in1031.2 mb - 0.00 in0.0 mm 0.00 in0.0 mm
07:46 AM -2.8°F-19.3°C -6.2°F-21.2°C 85% Calm Calm -- 30.45 in1031.2 mb - 0.00 in0.0 mm 0.00 in0.0 mm
07:44 AM -2.8°F-19.3°C -6.2°F-21.2°C 85% Calm Calm -- 30.46 in1031.5 mb - 0.00 in0.0 mm 0.00 in0.0 mm
07:43 AM -2.8°F-19.3°C -6.2°F-21.2°C 85% Calm Calm -- 30.46 in1031.5 mb - 0.00 in0.0 mm 0.00 in0.0 mm
07:42 AM -2.8°F-19.3°C -6.2°F-21.2°C 85% Calm Calm -- 30.46 in1031.5 mb - 0.00 in0.0 mm 0.00 in0.0 mm
07:40 AM -2.7°F-19.3°C -6.0°F-21.1°C 85% Calm Calm -- 30.46 in1031.5 mb - 0.00 in0.0 mm 0.00 in0.0 mm
07:39 AM -2.7°F-19.3°C -6.0°F-21.1°C 85% Calm Calm -- 30.46 in1031.5 mb - 0.00 in0.0 mm 0.00 in0.0 mm
07:38 AM -2.7°F-19.3°C -6.0°F-21.1°C 85% Calm Calm -- 30.46 in1031.5 mb - 0.00 in0.0 mm 0.00 in0.0 mm
07:37 AM -2.7°F-19.3°C -6.0°F-21.1°C 85% Calm Calm -- 30.46 in1031.5 mb - 0.00 in0.0 mm 0.00 in0.0 mm
07:36 AM -2.7°F-19.3°C -6.0°F-21.1°C 85% Calm Calm -- 30.46 in1031.5 mb - 0.00 in0.0 mm 0.00 in0.0 mm
07:35 AM -2.7°F-19.3°C -6.0°F-21.1°C 85% Calm Calm -- 30.46 in1031.5 mb - 0.00 in0.0 mm 0.00 in0.0 mm
07:34 AM -2.7°F-19.3°C -6.0°F-21.1°C 85% Calm Calm -- 30.46 in1031.5 mb - 0.00 in0.0 mm 0.00 in0.0 mm
07:33 AM -2.7°F-19.3°C -6.0°F-21.1°C 85% Calm Calm -- 30.46 in1031.5 mb - 0.00 in0.0 mm 0.00 in0.0 mm
07:31 AM -2.7°F-19.3°C -5.9°F-21.1°C 86% Calm Calm -- 30.46 in1031.5 mb - 0.00 in0.0 mm 0.00 in0.0 mm
07:30 AM -2.7°F-19.3°C -5.9°F-21.1°C 86% Calm Calm -- 30.46 in1031.5 mb - 0.00 in0.0 mm 0.00 in0.0 mm
07:29 AM -2.7°F-19.3°C -5.9°F-21.1°C 86% Calm Calm -- 30.46 in1031.5 mb - 0.00 in0.0 mm 0.00 in0.0 mm
07:28 AM -2.7°F-19.3°C -5.9°F-21.1°C 86% Calm Calm -- 30.46 in1031.5 mb - 0.00 in0.0 mm 0.00 in0.0 mm
07:26 AM -2.8°F-19.3°C -6.2°F-21.2°C 85% Calm Calm -- 30.46 in1031.5 mb - 0.00 in0.0 mm 0.00 in0.0 mm
07:25 AM -2.8°F-19.3°C -6.2°F-21.2°C 85% Calm Calm -- 30.46 in1031.5 mb - 0.00 in0.0 mm 0.00 in0.0 mm
07:24 AM -2.8°F-19.3°C -6.2°F-21.2°C 85% Calm Calm -- 30.46 in1031.5 mb - 0.00 in0.0 mm 0.00 in0.0 mm
07:23 AM -2.8°F-19.3°C -6.2°F-21.2°C 85% Calm Calm -- 30.46 in1031.5 mb - 0.00 in0.0 mm 0.00 in0.0 mm
07:22 AM -2.8°F-19.3°C -6.2°F-21.2°C 85% Calm Calm -- 30.46 in1031.5 mb - 0.00 in0.0 mm 0.00 in0.0 mm
07:20 AM -2.7°F-19.3°C -6.1°F-21.2°C 85% Calm Calm -- 30.45 in1031.2 mb - 0.00 in0.0 mm 0.00 in0.0 mm
07:19 AM -2.7°F-19.3°C -6.1°F-21.2°C 85% Calm Calm -- 30.45 in1031.2 mb - 0.00 in0.0 mm 0.00 in0.0 mm
07:18 AM -2.7°F-19.3°C -6.1°F-21.2°C 85% Calm Calm -- 30.45 in1031.2 mb - 0.00 in0.0 mm 0.00 in0.0 mm
07:17 AM -2.7°F-19.3°C -6.1°F-21.2°C 85% Calm Calm -- 30.45 in1031.2 mb - 0.00 in0.0 mm 0.00 in0.0 mm
07:16 AM -2.7°F-19.3°C -6.1°F-21.2°C 85% Calm Calm -- 30.45 in1031.2 mb - 0.00 in0.0 mm 0.00 in0.0 mm
07:15 AM -2.7°F-19.3°C -6.1°F-21.2°C 85% Calm Calm -- 30.45 in1031.2 mb - 0.00 in0.0 mm 0.00 in0.0 mm
07:14 AM -2.7°F-19.3°C -6.1°F-21.2°C 85% Calm Calm -- 30.45 in1031.2 mb - 0.00 in0.0 mm 0.00 in0.0 mm
07:13 AM -2.7°F-19.3°C -6.1°F-21.2°C 85% Calm Calm -- 30.45 in1031.2 mb - 0.00 in0.0 mm 0.00 in0.0 mm
07:12 AM -2.7°F-19.3°C -6.1°F-21.2°C 85% Calm Calm -- 30.45 in1031.2 mb - 0.00 in0.0 mm 0.00 in0.0 mm
07:11 AM -2.7°F-19.3°C -6.1°F-21.2°C 85% Calm Calm -- 30.45 in1031.2 mb - 0.00 in0.0 mm 0.00 in0.0 mm
07:10 AM -2.7°F-19.3°C -6.1°F-21.2°C 85% Calm Calm -- 30.45 in1031.2 mb - 0.00 in0.0 mm 0.00 in0.0 mm
07:09 AM -2.7°F-19.3°C -6.1°F-21.2°C 85% Calm Calm -- 30.45 in1031.2 mb - 0.00 in0.0 mm 0.00 in0.0 mm
07:08 AM -2.7°F-19.3°C -6.1°F-21.2°C 85% Calm Calm -- 30.45 in1031.2 mb - 0.00 in0.0 mm 0.00 in0.0 mm
07:07 AM -2.7°F-19.3°C -6.1°F-21.2°C 85% Calm Calm -- 30.45 in1031.2 mb - 0.00 in0.0 mm 0.00 in0.0 mm
07:05 AM -2.5°F-19.2°C -5.9°F-21.1°C 85% Calm Calm -- 30.45 in1031.2 mb - 0.00 in0.0 mm 0.00 in0.0 mm
07:04 AM -2.5°F-19.2°C -5.9°F-21.1°C 85% Calm Calm -- 30.45 in1031.2 mb - 0.00 in0.0 mm 0.00 in0.0 mm
07:03 AM -2.5°F-19.2°C -5.9°F-21.1°C 85% Calm Calm -- 30.45 in1031.2 mb - 0.00 in0.0 mm 0.00 in0.0 mm
07:02 AM -2.5°F-19.2°C -5.9°F-21.1°C 85% Calm Calm -- 30.45 in1031.2 mb - 0.00 in0.0 mm 0.00 in0.0 mm
07:01 AM -2.5°F-19.2°C -5.9°F-21.1°C 85% Calm Calm -- 30.45 in1031.2 mb - 0.00 in0.0 mm 0.00 in0.0 mm
07:00 AM -2.5°F-19.2°C -5.9°F-21.1°C 85% Calm Calm -- 30.45 in1031.2 mb - 0.00 in0.0 mm 0.00 in0.0 mm
06:59 AM -2.5°F-19.2°C -5.9°F-21.1°C 85% Calm Calm -- 30.45 in1031.2 mb - 0.00 in0.0 mm 0.00 in0.0 mm
06:58 AM -2.5°F-19.2°C -5.9°F-21.1°C 85% Calm Calm -- 30.45 in1031.2 mb - 0.00 in0.0 mm 0.00 in0.0 mm
06:56 AM -2.4°F-19.1°C -5.8°F-21.0°C 85% Calm Calm -- 30.45 in1031.2 mb - 0.00 in0.0 mm 0.00 in0.0 mm
06:55 AM -2.4°F-19.1°C -5.8°F-21.0°C 85% Calm Calm -- 30.45 in1031.2 mb - 0.00 in0.0 mm 0.00 in0.0 mm
06:54 AM -2.4°F-19.1°C -5.8°F-21.0°C 85% Calm Calm -- 30.45 in1031.2 mb - 0.00 in0.0 mm 0.00 in0.0 mm
06:53 AM -2.4°F-19.1°C -5.8°F-21.0°C 85% Calm Calm -- 30.45 in1031.2 mb - 0.00 in0.0 mm 0.00 in0.0 mm
06:52 AM -2.4°F-19.1°C -5.8°F-21.0°C 85% Calm Calm -- 30.45 in1031.2 mb - 0.00 in0.0 mm 0.00 in0.0 mm
06:51 AM -2.4°F-19.1°C -5.8°F-21.0°C 85% Calm Calm -- 30.45 in1031.2 mb - 0.00 in0.0 mm 0.00 in0.0 mm
06:50 AM -2.4°F-19.1°C -5.8°F-21.0°C 85% Calm Calm -- 30.45 in1031.2 mb - 0.00 in0.0 mm 0.00 in0.0 mm
06:49 AM -2.4°F-19.1°C -5.8°F-21.0°C 85% Calm Calm -- 30.45 in1031.2 mb - 0.00 in0.0 mm 0.00 in0.0 mm
06:48 AM -2.4°F-19.1°C -5.8°F-21.0°C 85% Calm Calm -- 30.45 in1031.2 mb - 0.00 in0.0 mm 0.00 in0.0 mm
06:46 AM -2.4°F-19.1°C -5.8°F-21.0°C 85% Calm Calm -- 30.44 in1030.8 mb - 0.00 in0.0 mm 0.00 in0.0 mm
06:45 AM -2.4°F-19.1°C -5.8°F-21.0°C 85% Calm Calm -- 30.44 in1030.8 mb - 0.00 in0.0 mm 0.00 in0.0 mm
06:44 AM -2.4°F-19.1°C -5.8°F-21.0°C 85% Calm Calm -- 30.44 in1030.8 mb - 0.00 in0.0 mm 0.00 in0.0 mm
06:43 AM -2.4°F-19.1°C -5.8°F-21.0°C 85% Calm Calm -- 30.44 in1030.8 mb - 0.00 in0.0 mm 0.00 in0.0 mm
06:42 AM -2.4°F-19.1°C -5.8°F-21.0°C 85% Calm Calm -- 30.44 in1030.8 mb - 0.00 in0.0 mm 0.00 in0.0 mm
06:41 AM -2.4°F-19.1°C -5.8°F-21.0°C 85% Calm Calm -- 30.44 in1030.8 mb - 0.00 in0.0 mm 0.00 in0.0 mm
06:40 AM -2.4°F-19.1°C -5.8°F-21.0°C 85% Calm Calm -- 30.44 in1030.8 mb - 0.00 in0.0 mm 0.00 in0.0 mm
06:39 AM -2.4°F-19.1°C -5.8°F-21.0°C 85% Calm Calm -- 30.44 in1030.8 mb - 0.00 in0.0 mm 0.00 in0.0 mm
06:38 AM -2.4°F-19.1°C -5.8°F-21.0°C 85% Calm Calm -- 30.44 in1030.8 mb - 0.00 in0.0 mm 0.00 in0.0 mm
06:36 AM -2.5°F-19.2°C -5.9°F-21.1°C 85% Calm Calm -- 30.45 in1031.2 mb - 0.00 in0.0 mm 0.00 in0.0 mm
06:35 AM -2.5°F-19.2°C -5.9°F-21.1°C 85% Calm Calm -- 30.45 in1031.2 mb - 0.00 in0.0 mm 0.00 in0.0 mm
06:34 AM -2.5°F-19.2°C -5.9°F-21.1°C 85% Calm Calm -- 30.45 in1031.2 mb - 0.00 in0.0 mm 0.00 in0.0 mm
06:33 AM -2.5°F-19.2°C -5.9°F-21.1°C 85% Calm Calm -- 30.45 in1031.2 mb - 0.00 in0.0 mm 0.00 in0.0 mm
06:32 AM -2.6°F-19.2°C -5.9°F-21.1°C 85% Calm Calm -- 30.45 in1031.2 mb - 0.00 in0.0 mm 0.00 in0.0 mm
06:30 AM -2.6°F-19.2°C -6.0°F-21.1°C 85% Calm Calm -- 30.45 in1031.2 mb - 0.00 in0.0 mm 0.00 in0.0 mm
06:29 AM -2.6°F-19.2°C -6.0°F-21.1°C 85% Calm Calm -- 30.45 in1031.2 mb - 0.00 in0.0 mm 0.00 in0.0 mm
06:28 AM -2.6°F-19.2°C -6.0°F-21.1°C 85% Calm Calm -- 30.45 in1031.2 mb - 0.00 in0.0 mm 0.00 in0.0 mm
06:26 AM -2.6°F-19.2°C -6.0°F-21.1°C 85% Calm Calm -- 30.44 in1030.8 mb - 0.00 in0.0 mm 0.00 in0.0 mm
06:25 AM -2.6°F-19.2°C -6.0°F-21.1°C 85% Calm Calm -- 30.44 in1030.8 mb - 0.00 in0.0 mm 0.00 in0.0 mm
06:24 AM -2.6°F-19.2°C -6.0°F-21.1°C 85% Calm Calm -- 30.44 in1030.8 mb - 0.00 in0.0 mm 0.00 in0.0 mm
06:23 AM -2.6°F-19.2°C -6.0°F-21.1°C 85% Calm Calm -- 30.44 in1030.8 mb - 0.00 in0.0 mm 0.00 in0.0 mm
06:22 AM -2.6°F-19.2°C -6.0°F-21.1°C 85% Calm Calm -- 30.44 in1030.8 mb - 0.00 in0.0 mm 0.00 in0.0 mm
06:21 AM -2.6°F-19.2°C -6.0°F-21.1°C 85% Calm Calm -- 30.44 in1030.8 mb - 0.00 in0.0 mm 0.00 in0.0 mm
06:20 AM -2.6°F-19.2°C -6.0°F-21.1°C 85% Calm Calm -- 30.44 in1030.8 mb - 0.00 in0.0 mm 0.00 in0.0 mm
06:19 AM -2.6°F-19.2°C -6.0°F-21.1°C 85% Calm Calm -- 30.44 in1030.8 mb - 0.00 in0.0 mm 0.00 in0.0 mm
06:18 AM -2.6°F-19.2°C -6.0°F-21.1°C 85% Calm Calm -- 30.44 in1030.8 mb - 0.00 in0.0 mm 0.00 in0.0 mm
06:16 AM -2.6°F-19.2°C -6.0°F-21.1°C 85% Calm Calm -- 30.44 in1030.8 mb - 0.00 in0.0 mm 0.00 in0.0 mm
06:15 AM -2.6°F-19.2°C -6.0°F-21.1°C 85% Calm Calm -- 30.44 in1030.8 mb - 0.00 in0.0 mm 0.00 in0.0 mm
06:14 AM -2.6°F-19.2°C -6.0°F-21.1°C 85% Calm Calm -- 30.44 in1030.8 mb - 0.00 in0.0 mm 0.00 in0.0 mm
06:13 AM -2.6°F-19.2°C -6.0°F-21.1°C 85% Calm Calm -- 30.44 in1030.8 mb - 0.00 in0.0 mm 0.00 in0.0 mm
06:12 AM -2.6°F-19.2°C -6.0°F-21.1°C 85% Calm Calm -- 30.44 in1030.8 mb - 0.00 in0.0 mm 0.00 in0.0 mm
06:10 AM -2.8°F-19.3°C -5.9°F-21.1°C 86% Calm Calm -- 30.44 in1030.8 mb - 0.00 in0.0 mm 0.00 in0.0 mm
06:09 AM -2.8°F-19.3°C -5.9°F-21.1°C 86% Calm Calm -- 30.44 in1030.8 mb - 0.00 in0.0 mm 0.00 in0.0 mm
06:08 AM -2.8°F-19.3°C -5.9°F-21.1°C 86% Calm Calm -- 30.44 in1030.8 mb - 0.00 in0.0 mm 0.00 in0.0 mm
06:07 AM -2.8°F-19.3°C -5.9°F-21.1°C 86% Calm Calm -- 30.44 in1030.8 mb - 0.00 in0.0 mm 0.00 in0.0 mm
06:06 AM -2.8°F-19.3°C -5.9°F-21.1°C 86% Calm Calm -- 30.44 in1030.8 mb - 0.00 in0.0 mm 0.00 in0.0 mm
06:05 AM -2.8°F-19.3°C -5.9°F-21.1°C 86% Calm Calm -- 30.44 in1030.8 mb - 0.00 in0.0 mm 0.00 in0.0 mm
06:04 AM -2.8°F-19.3°C -5.9°F-21.1°C 86% Calm Calm -- 30.44 in1030.8 mb - 0.00 in0.0 mm 0.00 in0.0 mm
06:03 AM -2.8°F-19.3°C -5.9°F-21.1°C 86% Calm Calm -- 30.44 in1030.8 mb - 0.00 in0.0 mm 0.00 in0.0 mm
06:02 AM -2.8°F-19.3°C -6.0°F-21.1°C 86% Calm Calm -- 30.44 in1030.8 mb - 0.00 in0.0 mm 0.00 in0.0 mm
06:01 AM -2.8°F-19.3°C -6.0°F-21.1°C 86% Calm Calm -- 30.44 in1030.8 mb - 0.00 in0.0 mm 0.00 in0.0 mm
06:00 AM -2.8°F-19.3°C -6.0°F-21.1°C 86% Calm Calm -- 30.44 in1030.8 mb - 0.00 in0.0 mm 0.00 in0.0 mm
05:59 AM -2.8°F-19.3°C -6.0°F-21.1°C 86% Calm Calm -- 30.44 in1030.8 mb - 0.00 in0.0 mm 0.00 in0.0 mm
05:58 AM -2.8°F-19.3°C -6.0°F-21.1°C 86% Calm Calm -- 30.44 in1030.8 mb - 0.00 in0.0 mm 0.00 in0.0 mm
05:56 AM -3.0°F-19.4°C -6.2°F-21.2°C 86% Calm Calm -- 30.44 in1030.8 mb - 0.00 in0.0 mm 0.00 in0.0 mm
05:55 AM -3.0°F-19.4°C -6.2°F-21.2°C 86% Calm Calm -- 30.44 in1030.8 mb - 0.00 in0.0 mm 0.00 in0.0 mm
05:54 AM -3.0°F-19.4°C -6.2°F-21.2°C 86% Calm Calm -- 30.44 in1030.8 mb - 0.00 in0.0 mm 0.00 in0.0 mm
05:53 AM -3.0°F-19.4°C -6.2°F-21.2°C 86% Calm Calm -- 30.44 in1030.8 mb - 0.00 in0.0 mm 0.00 in0.0 mm
05:52 AM -3.0°F-19.4°C -6.2°F-21.2°C 86% Calm Calm -- 30.44 in1030.8 mb - 0.00 in0.0 mm 0.00 in0.0 mm
05:51 AM -3.0°F-19.4°C -6.2°F-21.2°C 86% Calm Calm -- 30.44 in1030.8 mb - 0.00 in0.0 mm 0.00 in0.0 mm
05:50 AM -3.1°F-19.5°C -6.2°F-21.2°C 86% Calm Calm -- 30.44 in1030.8 mb - 0.00 in0.0 mm 0.00 in0.0 mm
05:49 AM -3.1°F-19.5°C -6.2°F-21.2°C 86% Calm Calm -- 30.44 in1030.8 mb - 0.00 in0.0 mm 0.00 in0.0 mm
05:48 AM -3.1°F-19.5°C -6.2°F-21.2°C 86% Calm Calm -- 30.44 in1030.8 mb - 0.00 in0.0 mm 0.00 in0.0 mm
05:46 AM -3.4°F-19.7°C -6.7°F-21.5°C 85% Calm Calm -- 30.44 in1030.8 mb - 0.00 in0.0 mm 0.00 in0.0 mm
05:45 AM -3.4°F-19.7°C -6.8°F-21.6°C 85% Calm Calm -- 30.44 in1030.8 mb - 0.00 in0.0 mm 0.00 in0.0 mm
05:44 AM -3.4°F-19.7°C -6.8°F-21.6°C 85% Calm Calm -- 30.44 in1030.8 mb - 0.00 in0.0 mm 0.00 in0.0 mm
05:43 AM -3.4°F-19.7°C -6.8°F-21.6°C 85% Calm Calm -- 30.44 in1030.8 mb - 0.00 in0.0 mm 0.00 in0.0 mm
05:42 AM -3.4°F-19.7°C -6.8°F-21.6°C 85% Calm Calm -- 30.44 in1030.8 mb - 0.00 in0.0 mm 0.00 in0.0 mm
05:41 AM -3.4°F-19.7°C -6.8°F-21.6°C 85% Calm Calm -- 30.44 in1030.8 mb - 0.00 in0.0 mm 0.00 in0.0 mm
05:40 AM -3.4°F-19.7°C -6.8°F-21.6°C 85% Calm Calm -- 30.44 in1030.8 mb - 0.00 in0.0 mm 0.00 in0.0 mm
05:39 AM -3.4°F-19.7°C -6.8°F-21.6°C 85% Calm Calm -- 30.44 in1030.8 mb - 0.00 in0.0 mm 0.00 in0.0 mm
05:38 AM -3.4°F-19.7°C -6.8°F-21.6°C 85% Calm Calm -- 30.44 in1030.8 mb - 0.00 in0.0 mm 0.00 in0.0 mm
05:36 AM -3.6°F-19.8°C -6.8°F-21.6°C 86% Calm Calm -- 30.44 in1030.8 mb - 0.00 in0.0 mm 0.00 in0.0 mm
05:35 AM -3.6°F-19.8°C -6.8°F-21.6°C 86% Calm Calm -- 30.44 in1030.8 mb - 0.00 in0.0 mm 0.00 in0.0 mm
05:34 AM -3.7°F-19.8°C -6.8°F-21.6°C 86% Calm Calm -- 30.44 in1030.8 mb - 0.00 in0.0 mm 0.00 in0.0 mm
05:33 AM -3.7°F-19.8°C -6.8°F-21.6°C 86% Calm Calm -- 30.44 in1030.8 mb - 0.00 in0.0 mm 0.00 in0.0 mm
05:32 AM -3.7°F-19.8°C -6.8°F-21.6°C 86% Calm Calm -- 30.44 in1030.8 mb - 0.00 in0.0 mm 0.00 in0.0 mm
05:31 AM -3.7°F-19.8°C -6.8°F-21.6°C 86% Calm Calm -- 30.44 in1030.8 mb - 0.00 in0.0 mm 0.00 in0.0 mm
05:30 AM -3.7°F-19.8°C -6.8°F-21.6°C 86% Calm Calm -- 30.44 in1030.8 mb - 0.00 in0.0 mm 0.00 in0.0 mm
05:29 AM -3.7°F-19.8°C -6.8°F-21.6°C 86% Calm Calm -- 30.44 in1030.8 mb - 0.00 in0.0 mm 0.00 in0.0 mm
05:28 AM -3.7°F-19.8°C -6.8°F-21.6°C 86% Calm Calm -- 30.44 in1030.8 mb - 0.00 in0.0 mm 0.00 in0.0 mm
05:26 AM -4.1°F-20.1°C -7.4°F-21.9°C 85% Calm Calm -- 30.44 in1030.8 mb - 0.00 in0.0 mm 0.00 in0.0 mm
05:25 AM -4.1°F-20.1°C -7.5°F-21.9°C 85% Calm Calm -- 30.44 in1030.8 mb - 0.00 in0.0 mm 0.00 in0.0 mm
05:24 AM -4.1°F-20.1°C -7.5°F-21.9°C 85% Calm Calm -- 30.44 in1030.8 mb - 0.00 in0.0 mm 0.00 in0.0 mm
05:23 AM -4.1°F-20.1°C -7.5°F-21.9°C 85% Calm Calm -- 30.44 in1030.8 mb - 0.00 in0.0 mm 0.00 in0.0 mm
05:22 AM -4.1°F-20.1°C -7.5°F-21.9°C 85% Calm Calm -- 30.44 in1030.8 mb - 0.00 in0.0 mm 0.00 in0.0 mm
05:21 AM -4.1°F-20.1°C -7.5°F-21.9°C 85% Calm Calm -- 30.44 in1030.8 mb - 0.00 in0.0 mm 0.00 in0.0 mm
05:20 AM -4.1°F-20.1°C -7.5°F-21.9°C 85% Calm Calm -- 30.44 in1030.8 mb - 0.00 in0.0 mm 0.00 in0.0 mm
05:19 AM -4.1°F-20.1°C -7.5°F-21.9°C 85% Calm Calm -- 30.44 in1030.8 mb - 0.00 in0.0 mm 0.00 in0.0 mm
05:18 AM -4.1°F-20.1°C -7.5°F-21.9°C 85% Calm Calm -- 30.44 in1030.8 mb - 0.00 in0.0 mm 0.00 in0.0 mm
05:16 AM -4.4°F-20.2°C -7.7°F-22.1°C 85% Calm Calm -- 30.44 in1030.8 mb - 0.00 in0.0 mm 0.00 in0.0 mm
05:15 AM -4.4°F-20.2°C -7.7°F-22.1°C 85% Calm Calm -- 30.44 in1030.8 mb - 0.00 in0.0 mm 0.00 in0.0 mm
05:14 AM -4.4°F-20.2°C -7.7°F-22.1°C 85% Calm Calm -- 30.44 in1030.8 mb - 0.00 in0.0 mm 0.00 in0.0 mm
05:13 AM -4.4°F-20.2°C -7.8°F-22.1°C 85% Calm Calm -- 30.44 in1030.8 mb - 0.00 in0.0 mm 0.00 in0.0 mm
05:12 AM -4.4°F-20.2°C -7.8°F-22.1°C 85% Calm Calm -- 30.44 in1030.8 mb - 0.00 in0.0 mm 0.00 in0.0 mm
05:11 AM -4.4°F-20.2°C -7.8°F-22.1°C 85% Calm Calm -- 30.44 in1030.8 mb - 0.00 in0.0 mm 0.00 in0.0 mm
05:10 AM -4.4°F-20.2°C -7.8°F-22.1°C 85% Calm Calm -- 30.44 in1030.8 mb - 0.00 in0.0 mm 0.00 in0.0 mm
05:08 AM -4.6°F-20.3°C -8.0°F-22.2°C 85% Calm Calm -- 30.43 in1030.5 mb - 0.00 in0.0 mm 0.00 in0.0 mm
05:07 AM -4.7°F-20.4°C -8.0°F-22.2°C 85% Calm Calm -- 30.43 in1030.5 mb - 0.00 in0.0 mm 0.00 in0.0 mm
05:06 AM -4.7°F-20.4°C -8.0°F-22.2°C 85% Calm Calm -- 30.43 in1030.5 mb - 0.00 in0.0 mm 0.00 in0.0 mm
05:05 AM -4.7°F-20.4°C -8.0°F-22.2°C 85% Calm Calm -- 30.43 in1030.5 mb - 0.00 in0.0 mm 0.00 in0.0 mm
05:04 AM -4.7°F-20.4°C -8.0°F-22.2°C 85% Calm Calm -- 30.43 in1030.5 mb - 0.00 in0.0 mm 0.00 in0.0 mm
05:03 AM -4.7°F-20.4°C -8.1°F-22.3°C 85% Calm Calm -- 30.43 in1030.5 mb - 0.00 in0.0 mm 0.00 in0.0 mm
05:02 AM -4.7°F-20.4°C -8.1°F-22.3°C 85% Calm Calm -- 30.43 in1030.5 mb - 0.00 in0.0 mm 0.00 in0.0 mm
05:01 AM -4.7°F-20.4°C -8.1°F-22.3°C 85% Calm Calm -- 30.43 in1030.5 mb - 0.00 in0.0 mm 0.00 in0.0 mm
05:00 AM -4.7°F-20.4°C -8.1°F-22.3°C 85% Calm Calm -- 30.43 in1030.5 mb - 0.00 in0.0 mm 0.00 in0.0 mm
04:59 AM -4.7°F-20.4°C -8.1°F-22.3°C 85% Calm Calm -- 30.43 in1030.5 mb - 0.00 in0.0 mm 0.00 in0.0 mm
04:58 AM -4.7°F-20.4°C -8.1°F-22.3°C 85% Calm Calm -- 30.43 in1030.5 mb - 0.00 in0.0 mm 0.00 in0.0 mm
04:56 AM -5.0°F-20.6°C -8.6°F-22.6°C 84% Calm Calm -- 30.43 in1030.5 mb - 0.00 in0.0 mm 0.00 in0.0 mm
04:55 AM -5.0°F-20.6°C -8.6°F-22.6°C 84% Calm Calm -- 30.43 in1030.5 mb - 0.00 in0.0 mm 0.00 in0.0 mm
04:54 AM -5.0°F-20.6°C -8.6°F-22.6°C 84% Calm Calm -- 30.43 in1030.5 mb - 0.00 in0.0 mm 0.00 in0.0 mm
04:53 AM -5.2°F-20.7°C -8.8°F-22.7°C 84% Calm Calm -- 30.43 in1030.5 mb - 0.00 in0.0 mm 0.00 in0.0 mm
04:52 AM -5.2°F-20.7°C -8.8°F-22.7°C 84% Calm Calm -- 30.43 in1030.5 mb - 0.00 in0.0 mm 0.00 in0.0 mm
04:51 AM -5.2°F-20.7°C -8.8°F-22.7°C 84% Calm Calm -- 30.43 in1030.5 mb - 0.00 in0.0 mm 0.00 in0.0 mm
04:50 AM -5.2°F-20.7°C -8.8°F-22.7°C 84% Calm Calm -- 30.43 in1030.5 mb - 0.00 in0.0 mm 0.00 in0.0 mm
04:49 AM -5.2°F-20.7°C -8.8°F-22.7°C 84% Calm Calm -- 30.43 in1030.5 mb - 0.00 in0.0 mm 0.00 in0.0 mm
04:48 AM -5.2°F-20.7°C -8.8°F-22.7°C 84% Calm Calm -- 30.43 in1030.5 mb - 0.00 in0.0 mm 0.00 in0.0 mm
04:46 AM -5.2°F-20.7°C -8.8°F-22.7°C 84% Calm Calm -- 30.43 in1030.5 mb - 0.00 in0.0 mm 0.00 in0.0 mm
04:45 AM -5.2°F-20.7°C -8.8°F-22.7°C 84% Calm Calm -- 30.43 in1030.5 mb - 0.00 in0.0 mm 0.00 in0.0 mm
04:44 AM -5.2°F-20.7°C -8.8°F-22.7°C 84% Calm Calm -- 30.43 in1030.5 mb - 0.00 in0.0 mm 0.00 in0.0 mm
04:43 AM -5.2°F-20.7°C -8.8°F-22.7°C 84% Calm Calm -- 30.43 in1030.5 mb - 0.00 in0.0 mm 0.00 in0.0 mm
04:42 AM -5.2°F-20.7°C -8.8°F-22.7°C 84% Calm Calm -- 30.43 in1030.5 mb - 0.00 in0.0 mm 0.00 in0.0 mm
04:41 AM -5.2°F-20.7°C -8.8°F-22.7°C 84% Calm Calm -- 30.43 in1030.5 mb - 0.00 in0.0 mm 0.00 in0.0 mm
04:40 AM -5.2°F-20.7°C -8.8°F-22.7°C 84% Calm Calm -- 30.43 in1030.5 mb - 0.00 in0.0 mm 0.00 in0.0 mm
04:39 AM -5.2°F-20.7°C -8.8°F-22.7°C 84% Calm Calm -- 30.43 in1030.5 mb - 0.00 in0.0 mm 0.00 in0.0 mm
04:38 AM -5.2°F-20.7°C -8.8°F-22.7°C 84% Calm Calm -- 30.43 in1030.5 mb - 0.00 in0.0 mm 0.00 in0.0 mm
04:36 AM -5.2°F-20.7°C -8.8°F-22.7°C 84% Calm Calm -- 30.44 in1030.8 mb - 0.00 in0.0 mm 0.00 in0.0 mm
04:35 AM -5.2°F-20.7°C -8.8°F-22.7°C 84% Calm Calm -- 30.44 in1030.8 mb - 0.00 in0.0 mm 0.00 in0.0 mm
04:34 AM -5.2°F-20.7°C -8.8°F-22.7°C 84% Calm Calm -- 30.44 in1030.8 mb - 0.00 in0.0 mm 0.00 in0.0 mm
04:33 AM -5.2°F-20.7°C -8.8°F-22.7°C 84% Calm Calm -- 30.44 in1030.8 mb - 0.00 in0.0 mm 0.00 in0.0 mm
04:32 AM -5.2°F-20.7°C -8.8°F-22.7°C 84% Calm Calm -- 30.44 in1030.8 mb - 0.00 in0.0 mm 0.00 in0.0 mm
04:30 AM -5.1°F-20.6°C -8.7°F-22.6°C 84% Calm Calm -- 30.44 in1030.8 mb - 0.00 in0.0 mm 0.00 in0.0 mm
04:29 AM -5.1°F-20.6°C -8.7°F-22.6°C 84% Calm Calm -- 30.44 in1030.8 mb - 0.00 in0.0 mm 0.00 in0.0 mm
04:28 AM -5.1°F-20.6°C -8.7°F-22.6°C 84% Calm Calm -- 30.44 in1030.8 mb - 0.00 in0.0 mm 0.00 in0.0 mm
04:26 AM -5.1°F-20.6°C -8.7°F-22.6°C 84% Calm Calm -- 30.44 in1030.8 mb - 0.00 in0.0 mm 0.00 in0.0 mm
04:25 AM -5.1°F-20.6°C -8.7°F-22.6°C 84% Calm Calm -- 30.44 in1030.8 mb - 0.00 in0.0 mm 0.00 in0.0 mm
04:24 AM -5.1°F-20.6°C -8.7°F-22.6°C 84% Calm Calm -- 30.44 in1030.8 mb - 0.00 in0.0 mm 0.00 in0.0 mm
04:23 AM -5.1°F-20.6°C -8.7°F-22.6°C 84% Calm Calm -- 30.44 in1030.8 mb - 0.00 in0.0 mm 0.00 in0.0 mm
04:21 AM -5.1°F-20.6°C -8.7°F-22.6°C 84% Calm Calm -- 30.44 in1030.8 mb - 0.00 in0.0 mm 0.00 in0.0 mm
04:20 AM -5.1°F-20.6°C -8.7°F-22.6°C 84% Calm Calm -- 30.44 in1030.8 mb - 0.00 in0.0 mm 0.00 in0.0 mm
04:19 AM -5.1°F-20.6°C -8.7°F-22.6°C 84% Calm Calm -- 30.44 in1030.8 mb - 0.00 in0.0 mm 0.00 in0.0 mm
04:18 AM -5.1°F-20.6°C -8.7°F-22.6°C 84% Calm Calm -- 30.44 in1030.8 mb - 0.00 in0.0 mm 0.00 in0.0 mm
04:17 AM -5.1°F-20.6°C -8.7°F-22.6°C 84% Calm Calm -- 30.44 in1030.8 mb - 0.00 in0.0 mm 0.00 in0.0 mm
04:16 AM -5.1°F-20.6°C -8.7°F-22.6°C 84% Calm Calm -- 30.44 in1030.8 mb - 0.00 in0.0 mm 0.00 in0.0 mm
04:15 AM -5.1°F-20.6°C -8.7°F-22.6°C 84% Calm Calm -- 30.44 in1030.8 mb - 0.00 in0.0 mm 0.00 in0.0 mm
04:14 AM -5.1°F-20.6°C -8.7°F-22.6°C 84% Calm Calm -- 30.44 in1030.8 mb - 0.00 in0.0 mm 0.00 in0.0 mm
04:13 AM -5.1°F-20.6°C -8.7°F-22.6°C 84% Calm Calm -- 30.43 in1030.5 mb - 0.00 in0.0 mm 0.00 in0.0 mm
04:12 AM -5.1°F-20.6°C -8.7°F-22.6°C 84% Calm Calm -- 30.43 in1030.5 mb - 0.00 in0.0 mm 0.00 in0.0 mm
04:11 AM -5.1°F-20.6°C -8.7°F-22.6°C 84% Calm Calm -- 30.43 in1030.5 mb - 0.00 in0.0 mm 0.00 in0.0 mm
04:10 AM -5.1°F-20.6°C -8.7°F-22.6°C 84% Calm Calm -- 30.43 in1030.5 mb - 0.00 in0.0 mm 0.00 in0.0 mm
04:09 AM -5.1°F-20.6°C -8.7°F-22.6°C 84% Calm Calm -- 30.43 in1030.5 mb - 0.00 in0.0 mm 0.00 in0.0 mm
04:08 AM -5.1°F-20.6°C -8.7°F-22.6°C 84% Calm Calm -- 30.43 in1030.5 mb - 0.00 in0.0 mm 0.00 in0.0 mm
04:07 AM -5.1°F-20.6°C -8.7°F-22.6°C 84% Calm Calm -- 30.43 in1030.5 mb - 0.00 in0.0 mm 0.00 in0.0 mm
04:05 AM -4.8°F-20.4°C -8.4°F-22.4°C 84% Calm Calm -- 30.43 in1030.5 mb - 0.00 in0.0 mm 0.00 in0.0 mm
04:04 AM -4.8°F-20.4°C -8.4°F-22.4°C 84% Calm Calm -- 30.43 in1030.5 mb - 0.00 in0.0 mm 0.00 in0.0 mm
04:03 AM -4.8°F-20.4°C -8.4°F-22.4°C 84% Calm Calm -- 30.43 in1030.5 mb - 0.00 in0.0 mm 0.00 in0.0 mm
04:02 AM -4.8°F-20.4°C -8.4°F-22.4°C 84% Calm Calm -- 30.43 in1030.5 mb - 0.00 in0.0 mm 0.00 in0.0 mm
04:01 AM -4.8°F-20.4°C -8.4°F-22.4°C 84% Calm Calm -- 30.43 in1030.5 mb - 0.00 in0.0 mm 0.00 in0.0 mm
04:00 AM -4.8°F-20.4°C -8.4°F-22.4°C 84% Calm Calm -- 30.43 in1030.5 mb - 0.00 in0.0 mm 0.00 in0.0 mm
03:59 AM -4.8°F-20.4°C -8.4°F-22.4°C 84% Calm Calm -- 30.43 in1030.5 mb - 0.00 in0.0 mm 0.00 in0.0 mm
03:58 AM -4.8°F-20.4°C -8.4°F-22.4°C 84% Calm Calm -- 30.43 in1030.5 mb - 0.00 in0.0 mm 0.00 in0.0 mm
03:57 AM -4.8°F-20.4°C -8.4°F-22.4°C 84% Calm Calm -- 30.43 in1030.5 mb - 0.00 in0.0 mm 0.00 in0.0 mm
03:56 AM -4.8°F-20.4°C -8.4°F-22.4°C 84% Calm Calm -- 30.43 in1030.5 mb - 0.00 in0.0 mm 0.00 in0.0 mm
03:55 AM -4.8°F-20.4°C -8.4°F-22.4°C 84% Calm Calm -- 30.43 in1030.5 mb - 0.00 in0.0 mm 0.00 in0.0 mm
03:54 AM -4.8°F-20.4°C -8.4°F-22.4°C 84% Calm Calm -- 30.43 in1030.5 mb - 0.00 in0.0 mm 0.00 in0.0 mm
03:53 AM -4.7°F-20.4°C -8.3°F-22.4°C 84% Calm Calm -- 30.43 in1030.5 mb - 0.00 in0.0 mm 0.00 in0.0 mm
03:51 AM -4.5°F-20.3°C -7.9°F-22.2°C 85% Calm Calm -- 30.43 in1030.5 mb - 0.00 in0.0 mm 0.00 in0.0 mm
03:50 AM -4.5°F-20.3°C -7.9°F-22.2°C 85% Calm Calm -- 30.43 in1030.5 mb - 0.00 in0.0 mm 0.00 in0.0 mm
03:49 AM -4.5°F-20.3°C -7.9°F-22.2°C 85% Calm Calm -- 30.43 in1030.5 mb - 0.00 in0.0 mm 0.00 in0.0 mm
03:48 AM -4.5°F-20.3°C -7.9°F-22.2°C 85% Calm Calm -- 30.43 in1030.5 mb - 0.00 in0.0 mm 0.00 in0.0 mm
03:47 AM -4.5°F-20.3°C -7.9°F-22.2°C 85% Calm Calm -- 30.43 in1030.5 mb - 0.00 in0.0 mm 0.00 in0.0 mm
03:46 AM -4.5°F-20.3°C -7.9°F-22.2°C 85% Calm Calm -- 30.43 in1030.5 mb - 0.00 in0.0 mm 0.00 in0.0 mm
03:45 AM -4.5°F-20.3°C -7.9°F-22.2°C 85% Calm Calm -- 30.43 in1030.5 mb - 0.00 in0.0 mm 0.00 in0.0 mm
03:44 AM -4.5°F-20.3°C -7.9°F-22.2°C 85% Calm Calm -- 30.43 in1030.5 mb - 0.00 in0.0 mm 0.00 in0.0 mm
03:43 AM -4.5°F-20.3°C -7.9°F-22.2°C 85% Calm Calm -- 30.43 in1030.5 mb - 0.00 in0.0 mm 0.00 in0.0 mm
03:42 AM -4.5°F-20.3°C -7.9°F-22.2°C 85% Calm Calm -- 30.43 in1030.5 mb - 0.00 in0.0 mm 0.00 in0.0 mm
03:41 AM -4.5°F-20.3°C -7.9°F-22.2°C 85% Calm Calm -- 30.43 in1030.5 mb - 0.00 in0.0 mm 0.00 in0.0 mm
03:40 AM -4.5°F-20.3°C -7.9°F-22.2°C 85% Calm Calm -- 30.43 in1030.5 mb - 0.00 in0.0 mm 0.00 in0.0 mm
03:39 AM -4.5°F-20.3°C -7.9°F-22.2°C 85% Calm Calm -- 30.43 in1030.5 mb - 0.00 in0.0 mm 0.00 in0.0 mm
03:38 AM -4.5°F-20.3°C -7.9°F-22.2°C 85% Calm Calm -- 30.43 in1030.5 mb - 0.00 in0.0 mm 0.00 in0.0 mm
03:36 AM -5.0°F-20.6°C -8.4°F-22.4°C 85% Calm Calm -- 30.43 in1030.5 mb - 0.00 in0.0 mm 0.00 in0.0 mm
03:35 AM -5.0°F-20.6°C -8.3°F-22.4°C 85% Calm Calm -- 30.43 in1030.5 mb - 0.00 in0.0 mm 0.00 in0.0 mm
03:34 AM -5.0°F-20.6°C -8.3°F-22.4°C 85% Calm Calm -- 30.43 in1030.5 mb - 0.00 in0.0 mm 0.00 in0.0 mm
03:33 AM -5.0°F-20.6°C -8.3°F-22.4°C 85% Calm Calm -- 30.43 in1030.5 mb - 0.00 in0.0 mm 0.00 in0.0 mm
03:32 AM -5.0°F-20.6°C -8.3°F-22.4°C 85% Calm Calm -- 30.43 in1030.5 mb - 0.00 in0.0 mm 0.00 in0.0 mm
03:31 AM -5.0°F-20.6°C -8.3°F-22.4°C 85% Calm Calm -- 30.43 in1030.5 mb - 0.00 in0.0 mm 0.00 in0.0 mm
03:29 AM -5.0°F-20.6°C -8.3°F-22.4°C 85% Calm Calm -- 30.43 in1030.5 mb - 0.00 in0.0 mm 0.00 in0.0 mm
03:28 AM -5.0°F-20.6°C -8.3°F-22.4°C 85% Calm Calm -- 30.43 in1030.5 mb - 0.00 in0.0 mm 0.00 in0.0 mm
03:27 AM -5.0°F-20.6°C -8.3°F-22.4°C 85% Calm Calm -- 30.43 in1030.5 mb - 0.00 in0.0 mm 0.00 in0.0 mm
03:26 AM -5.0°F-20.6°C -8.3°F-22.4°C 85% Calm Calm -- 30.43 in1030.5 mb - 0.00 in0.0 mm 0.00 in0.0 mm
03:25 AM -4.9°F-20.5°C -8.3°F-22.4°C 85% Calm Calm -- 30.43 in1030.5 mb - 0.00 in0.0 mm 0.00 in0.0 mm
03:24 AM -4.9°F-20.5°C -8.3°F-22.4°C 85% Calm Calm -- 30.43 in1030.5 mb - 0.00 in0.0 mm 0.00 in0.0 mm
03:23 AM -4.9°F-20.5°C -8.3°F-22.4°C 85% Calm Calm -- 30.43 in1030.5 mb - 0.00 in0.0 mm 0.00 in0.0 mm
03:22 AM -4.9°F-20.5°C -8.3°F-22.4°C 85% Calm Calm -- 30.43 in1030.5 mb - 0.00 in0.0 mm 0.00 in0.0 mm
03:21 AM -4.9°F-20.5°C -8.3°F-22.4°C 85% Calm Calm -- 30.43 in1030.5 mb - 0.00 in0.0 mm 0.00 in0.0 mm
03:20 AM -4.9°F-20.5°C -8.3°F-22.4°C 85% Calm Calm -- 30.43 in1030.5 mb - 0.00 in0.0 mm 0.00 in0.0 mm
03:19 AM -4.9°F-20.5°C -8.3°F-22.4°C 85% Calm Calm -- 30.43 in1030.5 mb - 0.00 in0.0 mm 0.00 in0.0 mm
03:18 AM -4.9°F-20.5°C -8.3°F-22.4°C 85% Calm Calm -- 30.43 in1030.5 mb - 0.00 in0.0 mm 0.00 in0.0 mm
03:16 AM -4.8°F-20.4°C -8.4°F-22.4°C 84% Calm Calm -- 30.43 in1030.5 mb - 0.00 in0.0 mm 0.00 in0.0 mm
03:15 AM -4.8°F-20.4°C -8.4°F-22.4°C 84% Calm Calm -- 30.43 in1030.5 mb - 0.00 in0.0 mm 0.00 in0.0 mm
03:14 AM -4.8°F-20.4°C -8.4°F-22.4°C 84% Calm Calm -- 30.43 in1030.5 mb - 0.00 in0.0 mm 0.00 in0.0 mm
03:13 AM -4.8°F-20.4°C -8.4°F-22.4°C 84% Calm Calm -- 30.43 in1030.5 mb - 0.00 in0.0 mm 0.00 in0.0 mm
03:12 AM -4.8°F-20.4°C -8.4°F-22.4°C 84% Calm Calm -- 30.43 in1030.5 mb - 0.00 in0.0 mm 0.00 in0.0 mm
03:11 AM -4.8°F-20.4°C -8.4°F-22.4°C 84% Calm Calm -- 30.43 in1030.5 mb - 0.00 in0.0 mm 0.00 in0.0 mm
03:10 AM -4.8°F-20.4°C -8.4°F-22.4°C 84% Calm Calm -- 30.43 in1030.5 mb - 0.00 in0.0 mm 0.00 in0.0 mm
03:09 AM -4.8°F-20.4°C -8.4°F-22.4°C 84% Calm Calm -- 30.43 in1030.5 mb - 0.00 in0.0 mm 0.00 in0.0 mm
03:08 AM -4.8°F-20.4°C -8.4°F-22.4°C 84% Calm Calm -- 30.43 in1030.5 mb - 0.00 in0.0 mm 0.00 in0.0 mm
03:07 AM -4.8°F-20.4°C -8.4°F-22.4°C 84% Calm Calm -- 30.43 in1030.5 mb - 0.00 in0.0 mm 0.00 in0.0 mm
03:06 AM -4.8°F-20.4°C -8.4°F-22.4°C 84% Calm Calm -- 30.43 in1030.5 mb - 0.00 in0.0 mm 0.00 in0.0 mm
03:05 AM -4.8°F-20.4°C -8.4°F-22.4°C 84% Calm Calm -- 30.43 in1030.5 mb - 0.00 in0.0 mm 0.00 in0.0 mm
03:04 AM -4.8°F-20.4°C -8.4°F-22.4°C 84% Calm Calm -- 30.43 in1030.5 mb - 0.00 in0.0 mm 0.00 in0.0 mm
03:03 AM -4.8°F-20.4°C -8.4°F-22.4°C 84% Calm Calm -- 30.43 in1030.5 mb - 0.00 in0.0 mm 0.00 in0.0 mm
03:01 AM -4.6°F-20.3°C -8.2°F-22.3°C 84% Calm Calm -- 30.43 in1030.5 mb - 0.00 in0.0 mm 0.00 in0.0 mm
03:00 AM -4.7°F-20.4°C -8.3°F-22.4°C 84% Calm Calm -- 30.43 in1030.5 mb - 0.00 in0.0 mm 0.00 in0.0 mm
02:59 AM -4.7°F-20.4°C -8.3°F-22.4°C 84% Calm Calm -- 30.43 in1030.5 mb - 0.00 in0.0 mm 0.00 in0.0 mm
02:58 AM -4.7°F-20.4°C -8.3°F-22.4°C 84% Calm Calm -- 30.43 in1030.5 mb - 0.00 in0.0 mm 0.00 in0.0 mm
02:57 AM -4.7°F-20.4°C -8.3°F-22.4°C 84% Calm Calm -- 30.43 in1030.5 mb - 0.00 in0.0 mm 0.00 in0.0 mm
02:56 AM -4.6°F-20.3°C -8.3°F-22.4°C 84% Calm Calm -- 30.43 in1030.5 mb - 0.00 in0.0 mm 0.00 in0.0 mm
02:55 AM -4.6°F-20.3°C -8.2°F-22.3°C 84% Calm Calm -- 30.43 in1030.5 mb - 0.00 in0.0 mm 0.00 in0.0 mm
02:54 AM -4.6°F-20.3°C -8.2°F-22.3°C 84% Calm Calm -- 30.43 in1030.5 mb - 0.00 in0.0 mm 0.00 in0.0 mm
02:53 AM -4.6°F-20.3°C -8.2°F-22.3°C 84% Calm Calm -- 30.43 in1030.5 mb - 0.00 in0.0 mm 0.00 in0.0 mm
02:52 AM -4.6°F-20.3°C -8.2°F-22.3°C 84% Calm Calm -- 30.43 in1030.5 mb - 0.00 in0.0 mm 0.00 in0.0 mm
02:51 AM -4.6°F-20.3°C -8.2°F-22.3°C 84% Calm Calm -- 30.43 in1030.5 mb - 0.00 in0.0 mm 0.00 in0.0 mm
02:50 AM -4.6°F-20.3°C -8.2°F-22.3°C 84% Calm Calm -- 30.43 in1030.5 mb - 0.00 in0.0 mm 0.00 in0.0 mm
02:49 AM -4.6°F-20.3°C -8.2°F-22.3°C 84% Calm Calm -- 30.43 in1030.5 mb - 0.00 in0.0 mm 0.00 in0.0 mm
02:48 AM -4.6°F-20.3°C -8.2°F-22.3°C 84% Calm Calm -- 30.43 in1030.5 mb - 0.00 in0.0 mm 0.00 in0.0 mm
02:47 AM -4.6°F-20.3°C -8.2°F-22.3°C 84% Calm Calm -- 30.43 in1030.5 mb - 0.00 in0.0 mm 0.00 in0.0 mm
02:46 AM -4.6°F-20.3°C -8.2°F-22.3°C 84% Calm Calm -- 30.43 in1030.5 mb - 0.00 in0.0 mm 0.00 in0.0 mm
02:45 AM -4.6°F-20.3°C -8.2°F-22.3°C 84% Calm Calm -- 30.43 in1030.5 mb - 0.00 in0.0 mm 0.00 in0.0 mm
02:44 AM -4.6°F-20.3°C -8.2°F-22.3°C 84% Calm Calm -- 30.43 in1030.5 mb - 0.00 in0.0 mm 0.00 in0.0 mm
02:43 AM -4.6°F-20.3°C -8.2°F-22.3°C 84% Calm Calm -- 30.43 in1030.5 mb - 0.00 in0.0 mm 0.00 in0.0 mm
02:42 AM -4.6°F-20.3°C -8.2°F-22.3°C 84% Calm Calm -- 30.43 in1030.5 mb - 0.00 in0.0 mm 0.00 in0.0 mm
02:41 AM -4.6°F-20.3°C -8.2°F-22.3°C 84% Calm Calm -- 30.43 in1030.5 mb - 0.00 in0.0 mm 0.00 in0.0 mm
02:40 AM -4.6°F-20.3°C -8.2°F-22.3°C 84% Calm Calm -- 30.43 in1030.5 mb - 0.00 in0.0 mm 0.00 in0.0 mm
02:39 AM -4.6°F-20.3°C -8.2°F-22.3°C 84% Calm Calm -- 30.43 in1030.5 mb - 0.00 in0.0 mm 0.00 in0.0 mm
02:38 AM -4.6°F-20.3°C -8.2°F-22.3°C 84% Calm Calm -- 30.43 in1030.5 mb - 0.00 in0.0 mm 0.00 in0.0 mm
02:37 AM -4.6°F-20.3°C -8.2°F-22.3°C 84% Calm Calm -- 30.43 in1030.5 mb - 0.00 in0.0 mm 0.00 in0.0 mm
02:36 AM -4.6°F-20.3°C -8.2°F-22.3°C 84% Calm Calm -- 30.43 in1030.5 mb - 0.00 in0.0 mm 0.00 in0.0 mm
02:35 AM -4.6°F-20.3°C -8.2°F-22.3°C 84% Calm Calm -- 30.43 in1030.5 mb - 0.00 in0.0 mm 0.00 in0.0 mm
02:34 AM -4.6°F-20.3°C -8.2°F-22.3°C 84% Calm Calm -- 30.43 in1030.5 mb - 0.00 in0.0 mm 0.00 in0.0 mm
02:33 AM -4.6°F-20.3°C -8.2°F-22.3°C 84% Calm Calm -- 30.43 in1030.5 mb - 0.00 in0.0 mm 0.00 in0.0 mm
02:32 AM -4.6°F-20.3°C -8.2°F-22.3°C 84% Calm Calm -- 30.43 in1030.5 mb - 0.00 in0.0 mm 0.00 in0.0 mm
02:31 AM -4.6°F-20.3°C -8.2°F-22.3°C 84% Calm Calm -- 30.43 in1030.5 mb - 0.00 in0.0 mm 0.00 in0.0 mm
02:30 AM -4.6°F-20.3°C -8.2°F-22.3°C 84% Calm Calm -- 30.43 in1030.5 mb - 0.00 in0.0 mm 0.00 in0.0 mm
02:29 AM -4.6°F-20.3°C -8.2°F-22.3°C 84% Calm Calm -- 30.43 in1030.5 mb - 0.00 in0.0 mm 0.00 in0.0 mm
02:28 AM -4.6°F-20.3°C -8.2°F-22.3°C 84% Calm Calm -- 30.43 in1030.5 mb - 0.00 in0.0 mm 0.00 in0.0 mm
02:26 AM -4.4°F-20.2°C -7.8°F-22.1°C 85% Calm Calm -- 30.43 in1030.5 mb - 0.00 in0.0 mm 0.00 in0.0 mm
02:25 AM -4.4°F-20.2°C -7.8°F-22.1°C 85% Calm Calm -- 30.43 in1030.5 mb - 0.00 in0.0 mm 0.00 in0.0 mm
02:24 AM -4.4°F-20.2°C -7.8°F-22.1°C 85% Calm Calm -- 30.43 in1030.5 mb - 0.00 in0.0 mm 0.00 in0.0 mm
02:23 AM -4.4°F-20.2°C -7.8°F-22.1°C 85% Calm Calm -- 30.43 in1030.5 mb - 0.00 in0.0 mm 0.00 in0.0 mm
02:22 AM -4.4°F-20.2°C -7.8°F-22.1°C 85% Calm Calm -- 30.43 in1030.5 mb - 0.00 in0.0 mm 0.00 in0.0 mm
02:21 AM -4.4°F-20.2°C -7.8°F-22.1°C 85% Calm Calm -- 30.43 in1030.5 mb - 0.00 in0.0 mm 0.00 in0.0 mm
02:20 AM -4.4°F-20.2°C -7.8°F-22.1°C 85% Calm Calm -- 30.43 in1030.5 mb - 0.00 in0.0 mm 0.00 in0.0 mm
02:19 AM -4.4°F-20.2°C -7.8°F-22.1°C 85% Calm Calm -- 30.43 in1030.5 mb - 0.00 in0.0 mm 0.00 in0.0 mm
02:18 AM -4.4°F-20.2°C -7.8°F-22.1°C 85% Calm Calm -- 30.43 in1030.5 mb - 0.00 in0.0 mm 0.00 in0.0 mm
02:17 AM -4.4°F-20.2°C -7.7°F-22.1°C 85% Calm Calm -- 30.43 in1030.5 mb - 0.00 in0.0 mm 0.00 in0.0 mm
02:16 AM -4.4°F-20.2°C -7.7°F-22.1°C 85% Calm Calm -- 30.43 in1030.5 mb - 0.00 in0.0 mm 0.00 in0.0 mm
02:15 AM -4.4°F-20.2°C -7.7°F-22.1°C 85% Calm Calm -- 30.43 in1030.5 mb - 0.00 in0.0 mm 0.00 in0.0 mm
02:14 AM -4.4°F-20.2°C -7.7°F-22.1°C 85% Calm Calm -- 30.43 in1030.5 mb - 0.00 in0.0 mm 0.00 in0.0 mm
02:13 AM -4.3°F-20.2°C -7.7°F-22.1°C 85% Calm Calm -- 30.43 in1030.5 mb - 0.00 in0.0 mm 0.00 in0.0 mm
02:11 AM -4.1°F-20.1°C -7.5°F-21.9°C 85% Calm Calm -- 30.43 in1030.5 mb - 0.00 in0.0 mm 0.00 in0.0 mm
02:10 AM -4.1°F-20.1°C -7.5°F-21.9°C 85% Calm Calm -- 30.43 in1030.5 mb - 0.00 in0.0 mm 0.00 in0.0 mm
02:09 AM -4.1°F-20.1°C -7.5°F-21.9°C 85% Calm Calm -- 30.43 in1030.5 mb - 0.00 in0.0 mm 0.00 in0.0 mm
02:08 AM -4.1°F-20.1°C -7.5°F-21.9°C 85% Calm Calm -- 30.43 in1030.5 mb - 0.00 in0.0 mm 0.00 in0.0 mm
02:07 AM -4.1°F-20.1°C -7.5°F-21.9°C 85% Calm Calm -- 30.43 in1030.5 mb - 0.00 in0.0 mm 0.00 in0.0 mm
02:06 AM -4.1°F-20.1°C -7.5°F-21.9°C 85% Calm Calm -- 30.43 in1030.5 mb - 0.00 in0.0 mm 0.00 in0.0 mm
02:05 AM -4.1°F-20.1°C -7.5°F-21.9°C 85% Calm Calm -- 30.43 in1030.5 mb - 0.00 in0.0 mm 0.00 in0.0 mm
02:04 AM -4.1°F-20.1°C -7.5°F-21.9°C 85% Calm Calm -- 30.43 in1030.5 mb - 0.00 in0.0 mm 0.00 in0.0 mm
02:03 AM -4.1°F-20.1°C -7.5°F-21.9°C 85% Calm Calm -- 30.43 in1030.5 mb - 0.00 in0.0 mm 0.00 in0.0 mm
02:02 AM -4.1°F-20.1°C -7.5°F-21.9°C 85% Calm Calm -- 30.43 in1030.5 mb - 0.00 in0.0 mm 0.00 in0.0 mm
02:01 AM -4.1°F-20.1°C -7.5°F-21.9°C 85% Calm Calm -- 30.43 in1030.5 mb - 0.00 in0.0 mm 0.00 in0.0 mm
02:00 AM -4.1°F-20.1°C -7.4°F-21.9°C 85% Calm Calm -- 30.43 in1030.5 mb - 0.00 in0.0 mm 0.00 in0.0 mm
01:59 AM -4.1°F-20.1°C -7.4°F-21.9°C 85% Calm Calm -- 30.43 in1030.5 mb - 0.00 in0.0 mm 0.00 in0.0 mm
01:58 AM -4.1°F-20.1°C -7.4°F-21.9°C 85% Calm Calm -- 30.43 in1030.5 mb - 0.00 in0.0 mm 0.00 in0.0 mm
01:57 AM -4.1°F-20.1°C -7.4°F-21.9°C 85% Calm Calm -- 30.43 in1030.5 mb - 0.00 in0.0 mm 0.00 in0.0 mm
01:56 AM -4.1°F-20.1°C -7.4°F-21.9°C 85% Calm Calm -- 30.43 in1030.5 mb - 0.00 in0.0 mm 0.00 in0.0 mm
01:55 AM -4.1°F-20.1°C -7.4°F-21.9°C 85% Calm Calm -- 30.43 in1030.5 mb - 0.00 in0.0 mm 0.00 in0.0 mm
01:54 AM -4.1°F-20.1°C -7.4°F-21.9°C 85% Calm Calm -- 30.43 in1030.5 mb - 0.00 in0.0 mm 0.00 in0.0 mm
01:53 AM -4.0°F-20.0°C -7.4°F-21.9°C 85% Calm Calm -- 30.43 in1030.5 mb - 0.00 in0.0 mm 0.00 in0.0 mm
01:51 AM -3.9°F-19.9°C -7.5°F-21.9°C 84% Calm Calm -- 30.42 in1030.1 mb - 0.00 in0.0 mm 0.00 in0.0 mm
01:50 AM -3.8°F-19.9°C -7.5°F-21.9°C 84% Calm Calm -- 30.42 in1030.1 mb - 0.00 in0.0 mm 0.00 in0.0 mm
01:49 AM -3.8°F-19.9°C -7.5°F-21.9°C 84% Calm Calm -- 30.42 in1030.1 mb - 0.00 in0.0 mm 0.00 in0.0 mm
01:48 AM -3.8°F-19.9°C -7.5°F-21.9°C 84% Calm Calm -- 30.42 in1030.1 mb - 0.00 in0.0 mm 0.00 in0.0 mm
01:47 AM -3.8°F-19.9°C -7.4°F-21.9°C 84% Calm Calm -- 30.42 in1030.1 mb - 0.00 in0.0 mm 0.00 in0.0 mm
01:46 AM -3.8°F-19.9°C -7.4°F-21.9°C 84% Calm Calm -- 30.42 in1030.1 mb - 0.00 in0.0 mm 0.00 in0.0 mm
01:45 AM -3.8°F-19.9°C -7.4°F-21.9°C 84% Calm Calm -- 30.42 in1030.1 mb - 0.00 in0.0 mm 0.00 in0.0 mm
01:44 AM -3.8°F-19.9°C -7.4°F-21.9°C 84% Calm Calm -- 30.42 in1030.1 mb - 0.00 in0.0 mm 0.00 in0.0 mm
01:43 AM -3.8°F-19.9°C -7.4°F-21.9°C 84% Calm Calm -- 30.42 in1030.1 mb - 0.00 in0.0 mm 0.00 in0.0 mm
01:42 AM -3.8°F-19.9°C -7.4°F-21.9°C 84% Calm Calm -- 30.42 in1030.1 mb - 0.00 in0.0 mm 0.00 in0.0 mm
01:41 AM -3.8°F-19.9°C -7.4°F-21.9°C 84% Calm Calm -- 30.42 in1030.1 mb - 0.00 in0.0 mm 0.00 in0.0 mm
01:40 AM -3.8°F-19.9°C -7.4°F-21.9°C 84% Calm Calm -- 30.42 in1030.1 mb - 0.00 in0.0 mm 0.00 in0.0 mm
01:39 AM -3.8°F-19.9°C -7.4°F-21.9°C 84% Calm Calm -- 30.42 in1030.1 mb - 0.00 in0.0 mm 0.00 in0.0 mm
01:38 AM -3.8°F-19.9°C -7.4°F-21.9°C 84% Calm Calm -- 30.42 in1030.1 mb - 0.00 in0.0 mm 0.00 in0.0 mm
01:36 AM -3.3°F-19.6°C -6.7°F-21.5°C 85% Calm Calm -- 30.42 in1030.1 mb - 0.00 in0.0 mm 0.00 in0.0 mm
01:35 AM -3.3°F-19.6°C -6.7°F-21.5°C 85% Calm Calm -- 30.42 in1030.1 mb - 0.00 in0.0 mm 0.00 in0.0 mm
01:34 AM -3.3°F-19.6°C -6.7°F-21.5°C 85% Calm Calm -- 30.42 in1030.1 mb - 0.00 in0.0 mm 0.00 in0.0 mm
01:33 AM -3.3°F-19.6°C -6.7°F-21.5°C 85% Calm Calm -- 30.42 in1030.1 mb - 0.00 in0.0 mm 0.00 in0.0 mm
01:32 AM -3.3°F-19.6°C -6.7°F-21.5°C 85% Calm Calm -- 30.42 in1030.1 mb - 0.00 in0.0 mm 0.00 in0.0 mm
01:31 AM -3.3°F-19.6°C -6.7°F-21.5°C 85% Calm Calm -- 30.42 in1030.1 mb - 0.00 in0.0 mm 0.00 in0.0 mm
01:30 AM -3.3°F-19.6°C -6.7°F-21.5°C 85% Calm Calm -- 30.42 in1030.1 mb - 0.00 in0.0 mm 0.00 in0.0 mm
01:29 AM -3.3°F-19.6°C -6.6°F-21.4°C 85% Calm Calm -- 30.42 in1030.1 mb - 0.00 in0.0 mm 0.00 in0.0 mm
01:28 AM -3.3°F-19.6°C -6.6°F-21.4°C 85% Calm Calm -- 30.42 in1030.1 mb - 0.00 in0.0 mm 0.00 in0.0 mm
01:27 AM -3.2°F-19.6°C -6.6°F-21.4°C 85% Calm Calm -- 30.42 in1030.1 mb - 0.00 in0.0 mm 0.00 in0.0 mm
01:26 AM -3.2°F-19.6°C -6.6°F-21.4°C 85% Calm Calm -- 30.42 in1030.1 mb - 0.00 in0.0 mm 0.00 in0.0 mm
01:25 AM -3.2°F-19.6°C -6.6°F-21.4°C 85% Calm Calm -- 30.42 in1030.1 mb - 0.00 in0.0 mm 0.00 in0.0 mm
01:24 AM -3.2°F-19.6°C -6.6°F-21.4°C 85% Calm Calm -- 30.41 in1029.8 mb - 0.00 in0.0 mm 0.00 in0.0 mm
01:23 AM -3.2°F-19.6°C -6.6°F-21.4°C 85% Calm Calm -- 30.41 in1029.8 mb - 0.00 in0.0 mm 0.00 in0.0 mm
01:21 AM -3.2°F-19.6°C -6.6°F-21.4°C 85% Calm Calm -- 30.41 in1029.8 mb - 0.00 in0.0 mm 0.00 in0.0 mm
01:20 AM -3.2°F-19.6°C -6.6°F-21.4°C 85% Calm Calm -- 30.41 in1029.8 mb - 0.00 in0.0 mm 0.00 in0.0 mm
01:19 AM -3.2°F-19.6°C -6.6°F-21.4°C 85% Calm Calm -- 30.41 in1029.8 mb - 0.00 in0.0 mm 0.00 in0.0 mm
01:18 AM -3.2°F-19.6°C -6.6°F-21.4°C 85% Calm Calm -- 30.41 in1029.8 mb - 0.00 in0.0 mm 0.00 in0.0 mm
01:17 AM -3.2°F-19.6°C -6.6°F-21.4°C 85% Calm Calm -- 30.41 in1029.8 mb - 0.00 in0.0 mm 0.00 in0.0 mm
01:16 AM -3.2°F-19.6°C -6.6°F-21.4°C 85% Calm Calm -- 30.41 in1029.8 mb - 0.00 in0.0 mm 0.00 in0.0 mm
01:15 AM -3.2°F-19.6°C -6.6°F-21.4°C 85% Calm Calm -- 30.41 in1029.8 mb - 0.00 in0.0 mm 0.00 in0.0 mm
01:14 AM -3.2°F-19.6°C -6.6°F-21.4°C 85% Calm Calm -- 30.41 in1029.8 mb - 0.00 in0.0 mm 0.00 in0.0 mm
01:13 AM -3.2°F-19.6°C -6.6°F-21.4°C 85% Calm Calm -- 30.41 in1029.8 mb - 0.00 in0.0 mm 0.00 in0.0 mm
01:11 AM -2.9°F-19.4°C -6.3°F-21.3°C 85% Calm Calm -- 30.41 in1029.8 mb - 0.00 in0.0 mm 0.00 in0.0 mm
01:10 AM -2.9°F-19.4°C -6.3°F-21.3°C 85% Calm Calm -- 30.41 in1029.8 mb - 0.00 in0.0 mm 0.00 in0.0 mm
01:09 AM -2.9°F-19.4°C -6.3°F-21.3°C 85% Calm Calm -- 30.41 in1029.8 mb - 0.00 in0.0 mm 0.00 in0.0 mm
01:08 AM -2.9°F-19.4°C -6.3°F-21.3°C 85% Calm Calm -- 30.41 in1029.8 mb - 0.00 in0.0 mm 0.00 in0.0 mm
01:07 AM -2.9°F-19.4°C -6.3°F-21.3°C 85% Calm Calm -- 30.41 in1029.8 mb - 0.00 in0.0 mm 0.00 in0.0 mm
01:06 AM -2.9°F-19.4°C -6.3°F-21.3°C 85% Calm Calm -- 30.41 in1029.8 mb - 0.00 in0.0 mm 0.00 in0.0 mm
01:05 AM -2.9°F-19.4°C -6.3°F-21.3°C 85% Calm Calm -- 30.41 in1029.8 mb - 0.00 in0.0 mm 0.00 in0.0 mm
01:04 AM -2.9°F-19.4°C -6.3°F-21.3°C 85% Calm Calm -- 30.41 in1029.8 mb - 0.00 in0.0 mm 0.00 in0.0 mm
01:03 AM -2.9°F-19.4°C -6.3°F-21.3°C 85% Calm Calm -- 30.41 in1029.8 mb - 0.00 in0.0 mm 0.00 in0.0 mm
01:02 AM -2.9°F-19.4°C -6.3°F-21.3°C 85% Calm Calm -- 30.41 in1029.8 mb - 0.00 in0.0 mm 0.00 in0.0 mm
01:01 AM -2.9°F-19.4°C -6.3°F-21.3°C 85% Calm Calm -- 30.41 in1029.8 mb - 0.00 in0.0 mm 0.00 in0.0 mm
01:00 AM -2.9°F-19.4°C -6.3°F-21.3°C 85% Calm Calm -- 30.41 in1029.8 mb - 0.00 in0.0 mm 0.00 in0.0 mm
12:59 AM -2.9°F-19.4°C -6.3°F-21.3°C 85% Calm Calm -- 30.41 in1029.8 mb - 0.00 in0.0 mm 0.00 in0.0 mm
12:58 AM -2.9°F-19.4°C -6.2°F-21.2°C 85% Calm Calm -- 30.41 in1029.8 mb - 0.00 in0.0 mm 0.00 in0.0 mm
12:56 AM -2.5°F-19.2°C -5.9°F-21.1°C 85% Calm Calm -- 30.41 in1029.8 mb - 0.00 in0.0 mm 0.00 in0.0 mm
12:55 AM -2.5°F-19.2°C -5.9°F-21.1°C 85% Calm Calm -- 30.41 in1029.8 mb - 0.00 in0.0 mm 0.00 in0.0 mm
12:54 AM -2.5°F-19.2°C -5.9°F-21.1°C 85% Calm Calm -- 30.41 in1029.8 mb - 0.00 in0.0 mm 0.00 in0.0 mm
12:53 AM -2.5°F-19.2°C -5.9°F-21.1°C 85% Calm Calm -- 30.41 in1029.8 mb - 0.00 in0.0 mm 0.00 in0.0 mm
12:52 AM -2.5°F-19.2°C -5.9°F-21.1°C 85% Calm Calm -- 30.41 in1029.8 mb - 0.00 in0.0 mm 0.00 in0.0 mm
12:51 AM -2.5°F-19.2°C -5.9°F-21.1°C 85% Calm Calm -- 30.41 in1029.8 mb - 0.00 in0.0 mm 0.00 in0.0 mm
12:50 AM -2.5°F-19.2°C -5.9°F-21.1°C 85% Calm Calm -- 30.41 in1029.8 mb - 0.00 in0.0 mm 0.00 in0.0 mm
12:49 AM -2.5°F-19.2°C -5.9°F-21.1°C 85% Calm Calm -- 30.41 in1029.8 mb - 0.00 in0.0 mm 0.00 in0.0 mm
12:48 AM -2.5°F-19.2°C -5.9°F-21.1°C 85% Calm Calm -- 30.41 in1029.8 mb - 0.00 in0.0 mm 0.00 in0.0 mm
12:47 AM -2.5°F-19.2°C -5.9°F-21.1°C 85% Calm Calm -- 30.41 in1029.8 mb - 0.00 in0.0 mm 0.00 in0.0 mm
12:46 AM -2.5°F-19.2°C -5.9°F-21.1°C 85% Calm Calm -- 30.41 in1029.8 mb - 0.00 in0.0 mm 0.00 in0.0 mm
12:45 AM -2.5°F-19.2°C -5.9°F-21.1°C 85% Calm Calm -- 30.41 in1029.8 mb - 0.00 in0.0 mm 0.00 in0.0 mm
12:44 AM -2.5°F-19.2°C -5.9°F-21.1°C 85% Calm Calm -- 30.41 in1029.8 mb - 0.00 in0.0 mm 0.00 in0.0 mm
12:43 AM -2.5°F-19.2°C -5.9°F-21.1°C 85% Calm Calm -- 30.41 in1029.8 mb - 0.00 in0.0 mm 0.00 in0.0 mm
12:41 AM -2.3°F-19.1°C -5.7°F-20.9°C 85% Calm Calm -- 30.41 in1029.8 mb - 0.00 in0.0 mm 0.00 in0.0 mm
12:40 AM -2.3°F-19.1°C -5.7°F-20.9°C 85% Calm Calm -- 30.41 in1029.8 mb - 0.00 in0.0 mm 0.00 in0.0 mm
12:39 AM -2.2°F-19.0°C -5.7°F-20.9°C 85% Calm Calm -- 30.41 in1029.8 mb - 0.00 in0.0 mm 0.00 in0.0 mm
12:38 AM -2.2°F-19.0°C -5.6°F-20.9°C 85% Calm Calm -- 30.41 in1029.8 mb - 0.00 in0.0 mm 0.00 in0.0 mm
12:37 AM -2.2°F-19.0°C -5.6°F-20.9°C 85% Calm Calm -- 30.41 in1029.8 mb - 0.00 in0.0 mm 0.00 in0.0 mm
12:36 AM -2.2°F-19.0°C -5.6°F-20.9°C 85% Calm Calm -- 30.41 in1029.8 mb - 0.00 in0.0 mm 0.00 in0.0 mm
12:35 AM -2.2°F-19.0°C -5.6°F-20.9°C 85% Calm Calm -- 30.41 in1029.8 mb - 0.00 in0.0 mm 0.00 in0.0 mm
12:34 AM -2.2°F-19.0°C -5.6°F-20.9°C 85% Calm Calm -- 30.41 in1029.8 mb - 0.00 in0.0 mm 0.00 in0.0 mm
12:33 AM -2.2°F-19.0°C -5.6°F-20.9°C 85% Calm Calm -- 30.41 in1029.8 mb - 0.00 in0.0 mm 0.00 in0.0 mm
12:32 AM -2.2°F-19.0°C -5.6°F-20.9°C 85% Calm Calm -- 30.41 in1029.8 mb - 0.00 in0.0 mm 0.00 in0.0 mm
12:31 AM -2.2°F-19.0°C -5.6°F-20.9°C 85% Calm Calm -- 30.41 in1029.8 mb - 0.00 in0.0 mm 0.00 in0.0 mm
12:29 AM -2.1°F-18.9°C -5.5°F-20.8°C 85% Calm Calm -- 30.41 in1029.8 mb - 0.00 in0.0 mm 0.00 in0.0 mm
12:28 AM -2.1°F-18.9°C -5.5°F-20.8°C 85% Calm Calm -- 30.41 in1029.8 mb - 0.00 in0.0 mm 0.00 in0.0 mm
12:27 AM -2.1°F-18.9°C -5.5°F-20.8°C 85% Calm Calm -- 30.41 in1029.8 mb - 0.00 in0.0 mm 0.00 in0.0 mm
12:26 AM -2.1°F-18.9°C -5.5°F-20.8°C 85% Calm Calm -- 30.41 in1029.8 mb - 0.00 in0.0 mm 0.00 in0.0 mm
12:25 AM -2.0°F-18.9°C -5.5°F-20.8°C 85% Calm Calm -- 30.41 in1029.8 mb - 0.00 in0.0 mm 0.00 in0.0 mm
12:24 AM -2.0°F-18.9°C -5.5°F-20.8°C 85% Calm Calm -- 30.41 in1029.8 mb - 0.00 in0.0 mm 0.00 in0.0 mm
12:23 AM -2.0°F-18.9°C -5.4°F-20.8°C 85% Calm Calm -- 30.41 in1029.8 mb - 0.00 in0.0 mm 0.00 in0.0 mm
12:21 AM -1.9°F-18.8°C -5.1°F-20.6°C 86% Calm Calm -- 30.41 in1029.8 mb - 0.00 in0.0 mm 0.00 in0.0 mm
12:20 AM -1.9°F-18.8°C -5.1°F-20.6°C 86% Calm Calm -- 30.41 in1029.8 mb - 0.00 in0.0 mm 0.00 in0.0 mm
12:19 AM -1.9°F-18.8°C -5.1°F-20.6°C 86% Calm Calm -- 30.41 in1029.8 mb - 0.00 in0.0 mm 0.00 in0.0 mm
12:18 AM -1.9°F-18.8°C -5.1°F-20.6°C 86% Calm Calm -- 30.41 in1029.8 mb - 0.00 in0.0 mm 0.00 in0.0 mm
12:17 AM -1.9°F-18.8°C -5.1°F-20.6°C 86% Calm Calm -- 30.41 in1029.8 mb - 0.00 in0.0 mm 0.00 in0.0 mm
12:16 AM -1.9°F-18.8°C -5.1°F-20.6°C 86% Calm Calm -- 30.41 in1029.8 mb - 0.00 in0.0 mm 0.00 in0.0 mm
12:15 AM -1.9°F-18.8°C -5.1°F-20.6°C 86% Calm Calm -- 30.41 in1029.8 mb - 0.00 in0.0 mm 0.00 in0.0 mm
12:14 AM -1.9°F-18.8°C -5.1°F-20.6°C 86% Calm Calm -- 30.41 in1029.8 mb - 0.00 in0.0 mm 0.00 in0.0 mm
12:13 AM -1.9°F-18.8°C -5.1°F-20.6°C 86% Calm Calm -- 30.41 in1029.8 mb - 0.00 in0.0 mm 0.00 in0.0 mm
12:12 AM -1.9°F-18.8°C -5.1°F-20.6°C 86% Calm Calm -- 30.41 in1029.8 mb - 0.00 in0.0 mm 0.00 in0.0 mm
12:11 AM -1.9°F-18.8°C -5.1°F-20.6°C 86% Calm Calm -- 30.41 in1029.8 mb - 0.00 in0.0 mm 0.00 in0.0 mm
12:10 AM -1.9°F-18.8°C -5.3°F-20.7°C 85% Calm Calm -- 30.41 in1029.8 mb - 0.00 in0.0 mm 0.00 in0.0 mm
12:09 AM -1.9°F-18.8°C -5.3°F-20.7°C 85% Calm Calm -- 30.41 in1029.8 mb - 0.00 in0.0 mm 0.00 in0.0 mm
12:08 AM -1.9°F-18.8°C -5.3°F-20.7°C 85% Calm Calm -- 30.41 in1029.8 mb - 0.00 in0.0 mm 0.00 in0.0 mm
12:07 AM -1.7°F-18.7°C -5.1°F-20.6°C 85% Calm Calm -- 30.41 in1029.8 mb - 0.00 in0.0 mm 0.00 in0.0 mm
12:05 AM -1.6°F-18.7°C -5.0°F-20.6°C 85% Calm Calm -- 30.40 in1029.5 mb - 0.00 in0.0 mm 0.00 in0.0 mm
12:04 AM -1.6°F-18.7°C -5.0°F-20.6°C 85% Calm Calm -- 30.40 in1029.5 mb - 0.00 in0.0 mm 0.00 in0.0 mm
12:03 AM -1.6°F-18.7°C -5.0°F-20.6°C 85% Calm Calm -- 30.40 in1029.5 mb - 0.00 in0.0 mm 0.00 in0.0 mm
12:02 AM -1.6°F-18.7°C -5.0°F-20.6°C 85% Calm Calm -- 30.40 in1029.5 mb - 0.00 in0.0 mm 0.00 in0.0 mm
12:01 AM -1.6°F-18.7°C -5.0°F-20.6°C 85% Calm Calm -- 30.40 in1029.5 mb - 0.00 in0.0 mm 0.00 in0.0 mm
12:00 AM -1.6°F-18.7°C -5.0°F-20.6°C 85% Calm Calm -- 30.40 in1029.5 mb - 0.00 in0.0 mm 0.00 in0.0 mm